Observation data for Stinnett on 06/20/2019      Previous  Date  Next       Current Mesonet Observations  Soil Data  Daily Summary Page  Observations in Plain Language
KST3 200500Z 17005KT 22/14 A2984 RMK A01 T02160140  RH  062%=      5-min Rain = 0
KST3 200501Z 17005KT 22/14 A2984 RMK A01 T02170140  RH  062%=      5-min Rain = 0
KST3 200502Z 17005KT 22/14 A2984 RMK A01 T02170141  RH  062%=      5-min Rain = 0
KST3 200503Z 17005KT 22/14 A2984 RMK A01 T02170141  RH  062%=      5-min Rain = 0
KST3 200504Z 18006KT 22/14 A2985 RMK A01 T02170142  RH  062%=      5-min Rain = 0
KST3 200505Z 18006KT 22/14 A2985 RMK A01 T02160144  RH  064%=      5-min Rain = 0
KST3 200506Z 18007KT 21/14 A2985 RMK A01 T02140143  RH  064%=      5-min Rain = 0
KST3 200507Z 18006KT 21/14 A2985 RMK A01 T02120143  RH  064%=      5-min Rain = 0
KST3 200508Z 18006KT 21/14 A2985 RMK A01 T02120143  RH  065%=      5-min Rain = 0
KST3 200509Z 18006KT 21/14 A2985 RMK A01 T02110143  RH  065%=      5-min Rain = 0
KST3 200510Z 18006KT 21/14 A2985 RMK A01 T02110143  RH  065%=      5-min Rain = 0
KST3 200511Z 18006KT 21/14 A2984 RMK A01 T02100142  RH  065%=      5-min Rain = 0
KST3 200512Z 18006KT 21/14 A2984 RMK A01 T02100143  RH  065%=      5-min Rain = 0
KST3 200513Z 18007KT 21/14 A2984 RMK A01 T02100144  RH  066%=      5-min Rain = 0
KST3 200514Z 17008KT 21/15 A2984 RMK A01 T02110145  RH  066%=      5-min Rain = 0
KST3 200515Z 18007KT 21/15 A2984 RMK A01 T02120146  RH  066%=      5-min Rain = 0
KST3 200516Z 17007KT 21/15 A2984 RMK A01 T02130146  RH  066%=      5-min Rain = 0
KST3 200517Z 17007KT 21/15 A2984 RMK A01 T02130147  RH  066%=      5-min Rain = 0
KST3 200518Z 18007KT 21/15 A2984 RMK A01 T02140147  RH  066%=      5-min Rain = 0
KST3 200519Z 17006KT 21/15 A2984 RMK A01 T02140148  RH  066%=      5-min Rain = 0
KST3 200520Z 17007KT 21/15 A2984 RMK A01 T02140148  RH  066%=      5-min Rain = 0
KST3 200521Z 17007KT 21/15 A2984 RMK A01 T02130147  RH  066%=      5-min Rain = 0
KST3 200522Z 18007KT 21/15 A2984 RMK A01 T02140148  RH  066%=      5-min Rain = 0
KST3 200523Z 18007KT 21/15 A2984 RMK A01 T02140148  RH  066%=      5-min Rain = 0
KST3 200524Z 17007KT 22/15 A2984 RMK A01 T02150148  RH  066%=      5-min Rain = 0
KST3 200525Z 17007KT 22/15 A2984 RMK A01 T02150148  RH  066%=      5-min Rain = 0
KST3 200526Z 17007KT 22/15 A2984 RMK A01 T02150148  RH  065%=      5-min Rain = 0
KST3 200527Z 17006KT 22/15 A2984 RMK A01 T02160148  RH  065%=      5-min Rain = 0
KST3 200528Z 17006KT 22/15 A2984 RMK A01 T02160148  RH  065%=      5-min Rain = 0
KST3 200529Z 17006KT 22/15 A2984 RMK A01 T02160148  RH  065%=      5-min Rain = 0
KST3 200530Z 17007KT 22/15 A2984 RMK A01 T02160148  RH  065%=      5-min Rain = 0
KST3 200531Z 17008KT 22/15 A2984 RMK A01 T02150148  RH  066%=      5-min Rain = 0
KST3 200532Z 17007KT 22/15 A2984 RMK A01 T02150148  RH  066%=      5-min Rain = 0
KST3 200533Z 18007KT 22/15 A2984 RMK A01 T02150148  RH  066%=      5-min Rain = 0
KST3 200534Z 18007KT 22/15 A2984 RMK A01 T02150148  RH  066%=      5-min Rain = 0
KST3 200535Z 18007KT 22/15 A2984 RMK A01 T02150148  RH  066%=      5-min Rain = 0
KST3 200536Z 18007KT 22/15 A2984 RMK A01 T02150149  RH  066%=      5-min Rain = 0
KST3 200537Z 17006KT 21/15 A2984 RMK A01 T02140149  RH  066%=      5-min Rain = 0
KST3 200538Z 17006KT 21/15 A2984 RMK A01 T02140149  RH  066%=      5-min Rain = 0
KST3 200539Z 17006KT 21/15 A2984 RMK A01 T02130149  RH  067%=      5-min Rain = 0
KST3 200540Z 18006KT 21/15 A2984 RMK A01 T02130148  RH  067%=      5-min Rain = 0
KST3 200541Z 18007KT 21/15 A2984 RMK A01 T02130148  RH  067%=      5-min Rain = 0
KST3 200542Z 18006KT 21/15 A2984 RMK A01 T02130149  RH  067%=      5-min Rain = 0
KST3 200543Z 18006KT 21/15 A2984 RMK A01 T02130149  RH  067%=      5-min Rain = 0
KST3 200544Z 18006KT 21/15 A2984 RMK A01 T02120149  RH  067%=      5-min Rain = 0
KST3 200545Z 18006KT 21/15 A2984 RMK A01 T02120148  RH  067%=      5-min Rain = 0
KST3 200546Z 18006KT 21/15 A2984 RMK A01 T02120147  RH  067%=      5-min Rain = 0
KST3 200547Z 18007KT 21/15 A2984 RMK A01 T02120147  RH  066%=      5-min Rain = 0
KST3 200548Z 18007KT 21/15 A2984 RMK A01 T02130147  RH  066%=      5-min Rain = 0
KST3 200549Z 18007KT 21/15 A2984 RMK A01 T02130147  RH  066%=      5-min Rain = 0
KST3 200550Z 18007KT 21/15 A2984 RMK A01 T02130147  RH  066%=      5-min Rain = 0
KST3 200551Z 18007KT 21/15 A2984 RMK A01 T02130147  RH  066%=      5-min Rain = 0
KST3 200552Z 18007KT 21/15 A2984 RMK A01 T02120147  RH  067%=      5-min Rain = 0
KST3 200553Z 18007KT 21/15 A2984 RMK A01 T02120148  RH  067%=      5-min Rain = 0
KST3 200554Z 18007KT 21/15 A2984 RMK A01 T02110147  RH  067%=      5-min Rain = 0
KST3 200555Z 18007KT 21/15 A2984 RMK A01 T02100148  RH  068%=      5-min Rain = 0
KST3 200556Z 18007KT 21/15 A2984 RMK A01 T02090148  RH  068%=      5-min Rain = 0
KST3 200557Z 18007KT 21/15 A2985 RMK A01 T02080148  RH  069%=      5-min Rain = 0
KST3 200558Z 18008KT 21/15 A2985 RMK A01 T02060148  RH  069%=      5-min Rain = 0
KST3 200559Z 18008KT 21/15 A2985 RMK A01 T02060149  RH  069%=      5-min Rain = 0
KST3 200600Z 18008KT 21/15 A2985 RMK A01 T02060148  RH  069%=      5-min Rain = 0
KST3 200601Z 18008KT 21/15 A2985 RMK A01 T02070148  RH  069%=      5-min Rain = 0
KST3 200602Z 18009KT 21/15 A2985 RMK A01 T02070148  RH  069%=      5-min Rain = 0
KST3 200603Z 17008KT 21/15 A2985 RMK A01 T02070148  RH  069%=      5-min Rain = 0
KST3 200604Z 17008KT 21/15 A2984 RMK A01 T02080149  RH  069%=      5-min Rain = 0
KST3 200605Z 17009KT 21/15 A2984 RMK A01 T02090149  RH  069%=      5-min Rain = 0
KST3 200606Z 17009KT 21/15 A2984 RMK A01 T02090149  RH  069%=      5-min Rain = 0
KST3 200607Z 17009KT 21/15 A2984 RMK A01 T02100150  RH  068%=      5-min Rain = 0
KST3 200608Z 18009KT 21/15 A2984 RMK A01 T02110151  RH  068%=      5-min Rain = 0
KST3 200609Z 18008KT 21/15 A2984 RMK A01 T02110151  RH  069%=      5-min Rain = 0
KST3 200610Z 18009KT 21/15 A2984 RMK A01 T02100151  RH  069%=      5-min Rain = 0
KST3 200611Z 18008KT 21/15 A2984 RMK A01 T02090151  RH  069%=      5-min Rain = 0
KST3 200612Z 18008KT 21/15 A2984 RMK A01 T02090152  RH  070%=      5-min Rain = 0
KST3 200613Z 18008KT 21/15 A2984 RMK A01 T02090152  RH  070%=      5-min Rain = 0
KST3 200614Z 18009KT 21/15 A2984 RMK A01 T02080152  RH  070%=      5-min Rain = 0
KST3 200615Z 18008KT 21/15 A2984 RMK A01 T02080153  RH  071%=      5-min Rain = 0
KST3 200616Z 18008KT 21/15 A2984 RMK A01 T02080153  RH  071%=      5-min Rain = 0
KST3 200617Z 18008KT 21/15 A2984 RMK A01 T02070153  RH  071%=      5-min Rain = 0
KST3 200618Z 19008KT 21/15 A2984 RMK A01 T02070153  RH  071%=      5-min Rain = 0
KST3 200619Z 19007KT 21/15 A2984 RMK A01 T02070153  RH  071%=      5-min Rain = 0
KST3 200620Z 19008KT 21/15 A2984 RMK A01 T02060153  RH  071%=      5-min Rain = 0
KST3 200621Z 19009KT 21/15 A2984 RMK A01 T02060154  RH  072%=      5-min Rain = 0
KST3 200622Z 19008KT 21/15 A2984 RMK A01 T02070154  RH  072%=      5-min Rain = 0
KST3 200623Z 19007KT 21/15 A2984 RMK A01 T02070154  RH  071%=      5-min Rain = 0
KST3 200624Z 19008KT 21/15 A2984 RMK A01 T02070154  RH  071%=      5-min Rain = 0
KST3 200625Z 19007KT 21/15 A2984 RMK A01 T02070154  RH  072%=      5-min Rain = 0
KST3 200626Z 19008KT 21/16 A2984 RMK A01 T02070155  RH  072%=      5-min Rain = 0
KST3 200627Z 20007KT 21/16 A2984 RMK A01 T02060155  RH  072%=      5-min Rain = 0
KST3 200628Z 19007KT 20/15 A2984 RMK A01 T02030153  RH  073%=      5-min Rain = 0
KST3 200629Z 20007KT 20/15 A2984 RMK A01 T01990152  RH  074%=      5-min Rain = 0
KST3 200630Z 20007KT 20/15 A2984 RMK A01 T01970152  RH  075%=      5-min Rain = 0
KST3 200631Z 20007KT 20/15 A2984 RMK A01 T01950152  RH  076%=      5-min Rain = 0
KST3 200632Z 20007KT 19/15 A2984 RMK A01 T01940152  RH  077%=      5-min Rain = 0
KST3 200633Z 19008KT 19/15 A2984 RMK A01 T01930153  RH  077%=      5-min Rain = 0
KST3 200634Z 20008KT 19/15 A2984 RMK A01 T01940153  RH  077%=      5-min Rain = 0
KST3 200635Z 19007KT 19/15 A2984 RMK A01 T01940153  RH  077%=      5-min Rain = 0
KST3 200636Z 19008KT 20/15 A2984 RMK A01 T01950153  RH  077%=      5-min Rain = 0
KST3 200637Z 19008KT 20/15 A2984 RMK A01 T01960154  RH  077%=      5-min Rain = 0
KST3 200638Z 19008KT 20/16 A2984 RMK A01 T01970155  RH  076%=      5-min Rain = 0
KST3 200639Z 19009KT 20/16 A2984 RMK A01 T01980155  RH  076%=      5-min Rain = 0
KST3 200640Z 19009KT 20/16 A2984 RMK A01 T01990156  RH  076%=      5-min Rain = 0
KST3 200641Z 19009KT 20/16 A2984 RMK A01 T02000157  RH  076%=      5-min Rain = 0
KST3 200642Z 18010KT 20/16 A2984 RMK A01 T02010158  RH  076%=      5-min Rain = 0
KST3 200643Z 19009KT 20/16 A2984 RMK A01 T02030158  RH  076%=      5-min Rain = 0
KST3 200644Z 18009KT 20/16 A2984 RMK A01 T02040159  RH  075%=      5-min Rain = 0
KST3 200645Z 18009KT 21/16 A2984 RMK A01 T02050159  RH  075%=      5-min Rain = 0
KST3 200646Z 19009KT 21/16 A2984 RMK A01 T02060159  RH  074%=      5-min Rain = 0
KST3 200647Z 18009KT 21/16 A2984 RMK A01 T02060159  RH  074%=      5-min Rain = 0
KST3 200648Z 19008KT 21/16 A2984 RMK A01 T02060159  RH  074%=      5-min Rain = 0
KST3 200649Z 19007KT 21/16 A2984 RMK A01 T02060159  RH  075%=      5-min Rain = 0
KST3 200650Z 19007KT 21/16 A2984 RMK A01 T02050159  RH  075%=      5-min Rain = 0
KST3 200651Z 20006KT 20/16 A2984 RMK A01 T02020158  RH  076%=      5-min Rain = 0
KST3 200652Z 20007KT 20/16 A2984 RMK A01 T01970157  RH  078%=      5-min Rain = 0
KST3 200653Z 20007KT 19/16 A2984 RMK A01 T01930156  RH  079%=      5-min Rain = 0
KST3 200654Z 20006KT 19/16 A2984 RMK A01 T01900156  RH  081%=      5-min Rain = 0
KST3 200655Z 20007KT 19/16 A2984 RMK A01 T01890156  RH  081%=      5-min Rain = 0
KST3 200656Z 20007KT 19/16 A2984 RMK A01 T01870156  RH  082%=      5-min Rain = 0
KST3 200657Z 20006KT 19/16 A2984 RMK A01 T01890157  RH  082%=      5-min Rain = 0
KST3 200658Z 20007KT 19/16 A2984 RMK A01 T01900157  RH  081%=      5-min Rain = 0
KST3 200659Z 20006KT 19/16 A2984 RMK A01 T01910157  RH  081%=      5-min Rain = 0
KST3 200700Z 20006KT 19/16 A2984 RMK A01 T01910157  RH  080%=      5-min Rain = 0
KST3 200701Z 20007KT 19/16 A2984 RMK A01 T01910156  RH  080%=      5-min Rain = 0
KST3 200702Z 20007KT 19/16 A2984 RMK A01 T01900156  RH  081%=      5-min Rain = 0
KST3 200703Z 20006KT 19/16 A2984 RMK A01 T01900156  RH  081%=      5-min Rain = 0
KST3 200704Z 20006KT 19/16 A2984 RMK A01 T01900156  RH  081%=      5-min Rain = 0
KST3 200705Z 19006KT 19/16 A2984 RMK A01 T01890155  RH  081%=      5-min Rain = 0
KST3 200706Z 20006KT 19/16 A2984 RMK A01 T01890156  RH  081%=      5-min Rain = 0
KST3 200707Z 20006KT 19/16 A2985 RMK A01 T01900157  RH  081%=      5-min Rain = 0
KST3 200708Z 20006KT 19/16 A2985 RMK A01 T01910157  RH  081%=      5-min Rain = 0
KST3 200709Z 19006KT 19/16 A2985 RMK A01 T01920157  RH  080%=      5-min Rain = 0
KST3 200710Z 19007KT 19/16 A2985 RMK A01 T01930158  RH  080%=      5-min Rain = 0
KST3 200711Z 20007KT 20/16 A2985 RMK A01 T01960158  RH  079%=      5-min Rain = 0
KST3 200712Z 20006KT 20/16 A2985 RMK A01 T01970158  RH  078%=      5-min Rain = 0
KST3 200713Z 19006KT 20/16 A2985 RMK A01 T01960157  RH  078%=      5-min Rain = 0
KST3 200714Z 20006KT 20/16 A2985 RMK A01 T01950157  RH  078%=      5-min Rain = 0
KST3 200715Z 19006KT 19/16 A2985 RMK A01 T01940157  RH  079%=      5-min Rain = 0
KST3 200716Z 20006KT 19/16 A2985 RMK A01 T01920156  RH  080%=      5-min Rain = 0
KST3 200717Z 19006KT 19/16 A2985 RMK A01 T01920157  RH  080%=      5-min Rain = 0
KST3 200718Z 20006KT 19/16 A2984 RMK A01 T01930158  RH  080%=      5-min Rain = 0
KST3 200719Z 20005KT 19/16 A2984 RMK A01 T01930157  RH  080%=      5-min Rain = 0
KST3 200720Z 20006KT 19/16 A2984 RMK A01 T01920157  RH  080%=      5-min Rain = 0
KST3 200721Z 20006KT 19/16 A2984 RMK A01 T01910157  RH  081%=      5-min Rain = 0
KST3 200722Z 20006KT 19/16 A2984 RMK A01 T01910157  RH  081%=      5-min Rain = 0
KST3 200723Z 20006KT 19/16 A2984 RMK A01 T01910157  RH  081%=      5-min Rain = 0
KST3 200724Z 20006KT 19/16 A2984 RMK A01 T01890156  RH  081%=      5-min Rain = 0
KST3 200725Z 20006KT 19/16 A2984 RMK A01 T01880156  RH  082%=      5-min Rain = 0
KST3 200726Z 20006KT 19/16 A2984 RMK A01 T01860156  RH  083%=      5-min Rain = 0
KST3 200727Z 20006KT 19/16 A2984 RMK A01 T01860157  RH  083%=      5-min Rain = 0
KST3 200728Z 20006KT 19/16 A2984 RMK A01 T01860157  RH  083%=      5-min Rain = 0
KST3 200729Z 20006KT 19/16 A2984 RMK A01 T01850157  RH  084%=      5-min Rain = 0
KST3 200730Z 20006KT 18/16 A2984 RMK A01 T01840157  RH  084%=      5-min Rain = 0
KST3 200731Z 20007KT 18/16 A2984 RMK A01 T01840158  RH  084%=      5-min Rain = 0
KST3 200732Z 20007KT 18/16 A2984 RMK A01 T01840158  RH  085%=      5-min Rain = 0
KST3 200733Z 20007KT 18/16 A2984 RMK A01 T01830158  RH  085%=      5-min Rain = 0
KST3 200734Z 20007KT 18/16 A2984 RMK A01 T01830158  RH  086%=      5-min Rain = 0
KST3 200735Z 20007KT 18/16 A2984 RMK A01 T01820159  RH  086%=      5-min Rain = 0
KST3 200736Z 20007KT 18/16 A2984 RMK A01 T01820159  RH  086%=      5-min Rain = 0
KST3 200737Z 20007KT 18/16 A2984 RMK A01 T01820159  RH  086%=      5-min Rain = 0
KST3 200738Z 20007KT 18/16 A2984 RMK A01 T01820159  RH  086%=      5-min Rain = 0
KST3 200739Z 20006KT 18/16 A2984 RMK A01 T01820160  RH  087%=      5-min Rain = 0
KST3 200740Z 20007KT 18/16 A2984 RMK A01 T01830160  RH  087%=      5-min Rain = 0
KST3 200741Z 20007KT 18/16 A2984 RMK A01 T01830160  RH  086%=      5-min Rain = 0
KST3 200742Z 20007KT 19/16 A2984 RMK A01 T01850161  RH  086%=      5-min Rain = 0
KST3 200743Z 19009KT 19/16 A2984 RMK A01 T01880163  RH  085%=      5-min Rain = 0
KST3 200744Z 19009KT 19/16 A2984 RMK A01 T01910163  RH  084%=      5-min Rain = 0
KST3 200745Z 20009KT 19/16 A2984 RMK A01 T01940163  RH  083%=      5-min Rain = 0
KST3 200746Z 20008KT 20/16 A2984 RMK A01 T01950163  RH  082%=      5-min Rain = 0
KST3 200747Z 20007KT 20/16 A2984 RMK A01 T01950163  RH  082%=      5-min Rain = 0
KST3 200748Z 20008KT 19/16 A2984 RMK A01 T01940164  RH  082%=      5-min Rain = 0
KST3 200749Z 20008KT 19/16 A2984 RMK A01 T01930164  RH  083%=      5-min Rain = 0
KST3 200750Z 20008KT 19/16 A2984 RMK A01 T01930164  RH  083%=      5-min Rain = 0
KST3 200751Z 21006KT 19/16 A2984 RMK A01 T01910163  RH  084%=      5-min Rain = 0
KST3 200752Z 21006KT 19/16 A2984 RMK A01 T01880161  RH  085%=      5-min Rain = 0
KST3 200753Z 21007KT 19/16 A2984 RMK A01 T01850161  RH  086%=      5-min Rain = 0
KST3 200754Z 20007KT 18/16 A2984 RMK A01 T01840162  RH  087%=      5-min Rain = 0
KST3 200755Z 20008KT 19/16 A2984 RMK A01 T01850163  RH  087%=      5-min Rain = 0
KST3 200756Z 20008KT 19/16 A2984 RMK A01 T01850163  RH  087%=      5-min Rain = 0
KST3 200757Z 20008KT 19/16 A2984 RMK A01 T01870163  RH  086%=      5-min Rain = 0
KST3 200758Z 20009KT 19/16 A2984 RMK A01 T01890164  RH  085%=      5-min Rain = 0
KST3 200759Z 20009KT 19/16 A2984 RMK A01 T01910164  RH  084%=      5-min Rain = 0
KST3 200800Z 20008KT 19/16 A2984 RMK A01 T01920164  RH  084%=      5-min Rain = 0
KST3 200801Z 21007KT 19/16 A2984 RMK A01 T01920164  RH  084%=      5-min Rain = 0
KST3 200802Z 20008KT 19/16 A2984 RMK A01 T01910164  RH  084%=      5-min Rain = 0
KST3 200803Z 20008KT 19/16 A2983 RMK A01 T01910164  RH  084%=      5-min Rain = 0
KST3 200804Z 20008KT 19/16 A2983 RMK A01 T01900163  RH  084%=      5-min Rain = 0
KST3 200805Z 20010KT 19/16 A2983 RMK A01 T01910163  RH  084%=      5-min Rain = 0
KST3 200806Z 20009KT 19/16 A2983 RMK A01 T01920163  RH  083%=      5-min Rain = 0
KST3 200807Z 20010KT 19/16 A2983 RMK A01 T01920163  RH  083%=      5-min Rain = 0
KST3 200808Z 21009KT 19/16 A2983 RMK A01 T01920163  RH  083%=      5-min Rain = 0
KST3 200809Z 21009KT 19/16 A2983 RMK A01 T01920163  RH  083%=      5-min Rain = 0
KST3 200810Z 20009KT 19/16 A2983 RMK A01 T01920163  RH  083%=      5-min Rain = 0
KST3 200811Z 21009KT 19/16 A2983 RMK A01 T01910163  RH  083%=      5-min Rain = 0
KST3 200812Z 20009KT 19/16 A2983 RMK A01 T01910163  RH  084%=      5-min Rain = 0
KST3 200813Z 20010KT 19/16 A2983 RMK A01 T01910163  RH  084%=      5-min Rain = 0
KST3 200814Z 21010KT 19/16 A2983 RMK A01 T01910164  RH  084%=      5-min Rain = 0
KST3 200815Z 20010KT 19/16 A2983 RMK A01 T01910163  RH  084%=      5-min Rain = 0
KST3 200816Z 20009KT 19/16 A2983 RMK A01 T01910163  RH  084%=      5-min Rain = 0
KST3 200817Z 20009KT 19/16 A2983 RMK A01 T01900163  RH  084%=      5-min Rain = 0
KST3 200818Z 20009KT 19/16 A2983 RMK A01 T01890163  RH  085%=      5-min Rain = 0
KST3 200819Z 21009KT 19/16 A2983 RMK A01 T01890163  RH  085%=      5-min Rain = 0
KST3 200820Z 21009KT 19/16 A2983 RMK A01 T01880163  RH  086%=      5-min Rain = 0
KST3 200821Z 20009KT 19/16 A2983 RMK A01 T01870163  RH  086%=      5-min Rain = 0
KST3 200822Z 21009KT 19/16 A2983 RMK A01 T01870163  RH  086%=      5-min Rain = 0
KST3 200823Z 21009KT 19/16 A2983 RMK A01 T01860163  RH  086%=      5-min Rain = 0
KST3 200824Z 21010KT 19/16 A2983 RMK A01 T01860163  RH  087%=      5-min Rain = 0
KST3 200825Z 21010KT 19/16 A2983 RMK A01 T01860164  RH  087%=      5-min Rain = 0
KST3 200826Z 21011KT 19/16 A2983 RMK A01 T01860164  RH  087%=      5-min Rain = 0
KST3 200827Z 21010KT 19/16 A2983 RMK A01 T01860164  RH  087%=      5-min Rain = 0
KST3 200828Z 21011KT 19/16 A2983 RMK A01 T01870164  RH  086%=      5-min Rain = 0
KST3 200829Z 21011KT 19/16 A2983 RMK A01 T01880164  RH  086%=      5-min Rain = 0
KST3 200830Z 21011KT 19/16 A2983 RMK A01 T01880164  RH  086%=      5-min Rain = 0
KST3 200831Z 21011KT 19/16 A2983 RMK A01 T01880164  RH  086%=      5-min Rain = 0
KST3 200832Z 21012KT 19/16 A2983 RMK A01 T01880164  RH  086%=      5-min Rain = 0
KST3 200833Z 21012KT 19/16 A2983 RMK A01 T01880164  RH  086%=      5-min Rain = 0
KST3 200834Z 21012KT 19/16 A2983 RMK A01 T01890164  RH  086%=      5-min Rain = 0
KST3 200835Z 21012KT 19/16 A2983 RMK A01 T01890164  RH  085%=      5-min Rain = 0
KST3 200836Z 21012KT 19/16 A2983 RMK A01 T01890164  RH  085%=      5-min Rain = 0
KST3 200837Z 22012KT 19/16 A2983 RMK A01 T01890164  RH  085%=      5-min Rain = 0
KST3 200838Z 21012KT 19/16 A2983 RMK A01 T01890164  RH  086%=      5-min Rain = 0
KST3 200839Z 21012KT 19/16 A2983 RMK A01 T01890164  RH  086%=      5-min Rain = 0
KST3 200840Z 21012KT 19/16 A2983 RMK A01 T01880164  RH  086%=      5-min Rain = 0
KST3 200841Z 21012KT 19/16 A2983 RMK A01 T01880164  RH  086%=      5-min Rain = 0
KST3 200842Z 21012KT 19/16 A2983 RMK A01 T01880164  RH  086%=      5-min Rain = 0
KST3 200843Z 21012KT 19/16 A2983 RMK A01 T01880164  RH  086%=      5-min Rain = 0
KST3 200844Z 21012KT 19/16 A2982 RMK A01 T01880164  RH  086%=      5-min Rain = 0
KST3 200845Z 21012KT 19/16 A2982 RMK A01 T01890164  RH  086%=      5-min Rain = 0
KST3 200846Z 21011KT 19/16 A2982 RMK A01 T01880164  RH  086%=      5-min Rain = 0
KST3 200847Z 20011KT 19/16 A2982 RMK A01 T01890164  RH  086%=      5-min Rain = 0
KST3 200848Z 20011KT 19/16 A2982 RMK A01 T01880164  RH  086%=      5-min Rain = 0
KST3 200849Z 21011KT 19/16 A2982 RMK A01 T01890164  RH  085%=      5-min Rain = 0
KST3 200850Z 21011KT 19/16 A2982 RMK A01 T01890164  RH  085%=      5-min Rain = 0
KST3 200851Z 21011KT 19/16 A2982 RMK A01 T01900164  RH  085%=      5-min Rain = 0
KST3 200852Z 20011KT 19/16 A2982 RMK A01 T01890164  RH  085%=      5-min Rain = 0
KST3 200853Z 21011KT 19/16 A2982 RMK A01 T01890164  RH  086%=      5-min Rain = 0
KST3 200854Z 21011KT 19/16 A2982 RMK A01 T01880164  RH  086%=      5-min Rain = 0
KST3 200855Z 21011KT 19/16 A2983 RMK A01 T01890164  RH  086%=      5-min Rain = 0
KST3 200856Z 21011KT 19/16 A2983 RMK A01 T01900164  RH  085%=      5-min Rain = 0
KST3 200857Z 21011KT 19/16 A2983 RMK A01 T01890164  RH  085%=      5-min Rain = 0
KST3 200858Z 20012KT 19/16 A2983 RMK A01 T01890164  RH  085%=      5-min Rain = 0
KST3 200859Z 21012KT 19/16 A2983 RMK A01 T01900164  RH  085%=      5-min Rain = 0
KST3 200900Z 21011KT 19/16 A2982 RMK A01 T01900164  RH  085%=      5-min Rain = 0
KST3 200901Z 21011KT 19/17 A2983 RMK A01 T01900165  RH  085%=      5-min Rain = 0
KST3 200902Z 21011KT 19/17 A2982 RMK A01 T01900165  RH  085%=      5-min Rain = 0
KST3 200903Z 21011KT 19/17 A2982 RMK A01 T01900165  RH  085%=      5-min Rain = 0
KST3 200904Z 20011KT 19/17 A2982 RMK A01 T01900165  RH  085%=      5-min Rain = 0
KST3 200905Z 20011KT 19/17 A2982 RMK A01 T01900165  RH  085%=      5-min Rain = 0
KST3 200906Z 20011KT 19/17 A2982 RMK A01 T01900165  RH  085%=      5-min Rain = 0
KST3 200907Z 20011KT 19/17 A2982 RMK A01 T01900165  RH  085%=      5-min Rain = 0
KST3 200908Z 20011KT 19/17 A2982 RMK A01 T01900165  RH  085%=      5-min Rain = 0
KST3 200909Z 20012KT 19/17 A2982 RMK A01 T01900165  RH  085%=      5-min Rain = 0
KST3 200910Z 20011KT 19/17 A2982 RMK A01 T01910166  RH  085%=      5-min Rain = 0
KST3 200911Z 20012KT 19/17 A2982 RMK A01 T01910166  RH  085%=      5-min Rain = 0
KST3 200912Z 20012KT 19/17 A2982 RMK A01 T01910166  RH  085%=      5-min Rain = 0
KST3 200913Z 20012KT 19/17 A2982 RMK A01 T01920166  RH  085%=      5-min Rain = 0
KST3 200914Z 20012KT 19/17 A2982 RMK A01 T01920166  RH  085%=      5-min Rain = 0
KST3 200915Z 20011KT 19/17 A2982 RMK A01 T01920166  RH  085%=      5-min Rain = 0
KST3 200916Z 20013KT 19/17 A2982 RMK A01 T01920166  RH  085%=      5-min Rain = 0
KST3 200917Z 20012KT 19/17 A2982 RMK A01 T01930166  RH  085%=      5-min Rain = 0
KST3 200918Z 20012KT 19/17 A2982 RMK A01 T01930166  RH  084%=      5-min Rain = 0
KST3 200919Z 20012KT 19/17 A2982 RMK A01 T01930167  RH  084%=      5-min Rain = 0
KST3 200920Z 20011KT 19/17 A2982 RMK A01 T01930167  RH  085%=      5-min Rain = 0
KST3 200921Z 21011KT 19/17 A2982 RMK A01 T01930167  RH  085%=      5-min Rain = 0
KST3 200922Z 21011KT 19/17 A2982 RMK A01 T01920167  RH  085%=      5-min Rain = 0
KST3 200923Z 21011KT 19/17 A2982 RMK A01 T01910166  RH  086%=      5-min Rain = 0
KST3 200924Z 21011KT 19/17 A2982 RMK A01 T01900166  RH  086%=      5-min Rain = 0
KST3 200925Z 20011KT 19/17 A2982 RMK A01 T01900166  RH  086%=      5-min Rain = 0
KST3 200926Z 20011KT 19/17 A2982 RMK A01 T01900166  RH  086%=      5-min Rain = 0
KST3 200927Z 20011KT 19/17 A2982 RMK A01 T01890166  RH  086%=      5-min Rain = 0
KST3 200928Z 20010KT 19/17 A2982 RMK A01 T01890166  RH  086%=      5-min Rain = 0
KST3 200929Z 20010KT 19/17 A2982 RMK A01 T01880166  RH  087%=      5-min Rain = 0
KST3 200930Z 20010KT 19/17 A2982 RMK A01 T01880166  RH  087%=      5-min Rain = 0
KST3 200931Z 21009KT 19/17 A2982 RMK A01 T01870166  RH  088%=      5-min Rain = 0
KST3 200932Z 20010KT 19/17 A2982 RMK A01 T01860166  RH  088%=      5-min Rain = 0
KST3 200933Z 20010KT 19/17 A2982 RMK A01 T01850166  RH  088%=      5-min Rain = 0
KST3 200934Z 20009KT 18/17 A2982 RMK A01 T01840166  RH  089%=      5-min Rain = 0
KST3 200935Z 20009KT 18/17 A2982 RMK A01 T01840166  RH  089%=      5-min Rain = 0
KST3 200936Z 21010KT 18/17 A2982 RMK A01 T01830166  RH  089%=      5-min Rain = 0
KST3 200937Z 21010KT 18/17 A2982 RMK A01 T01830166  RH  090%=      5-min Rain = 0
KST3 200938Z 21010KT 18/17 A2982 RMK A01 T01830166  RH  090%=      5-min Rain = 0
KST3 200939Z 21009KT 18/17 A2982 RMK A01 T01820166  RH  090%=      5-min Rain = 0
KST3 200940Z 20010KT 18/17 A2982 RMK A01 T01820166  RH  091%=      5-min Rain = 0
KST3 200941Z 20009KT 18/17 A2982 RMK A01 T01820167  RH  091%=      5-min Rain = 0
KST3 200942Z 20009KT 18/17 A2982 RMK A01 T01820166  RH  091%=      5-min Rain = 0
KST3 200943Z 20009KT 18/17 A2982 RMK A01 T01820166  RH  091%=      5-min Rain = 0
KST3 200944Z 20009KT 18/17 A2982 RMK A01 T01820167  RH  091%=      5-min Rain = 0
KST3 200945Z 20009KT 18/17 A2982 RMK A01 T01810166  RH  091%=      5-min Rain = 0
KST3 200946Z 20009KT 18/17 A2982 RMK A01 T01810166  RH  091%=      5-min Rain = 0
KST3 200947Z 20009KT 18/17 A2982 RMK A01 T01800166  RH  091%=      5-min Rain = 0
KST3 200948Z 20010KT 18/17 A2982 RMK A01 T01800166  RH  092%=      5-min Rain = 0
KST3 200949Z 20010KT 18/17 A2982 RMK A01 T01800166  RH  091%=      5-min Rain = 0
KST3 200950Z 20010KT 18/17 A2982 RMK A01 T01800166  RH  091%=      5-min Rain = 0
KST3 200951Z 20010KT 18/17 A2982 RMK A01 T01800166  RH  091%=      5-min Rain = 0
KST3 200952Z 20010KT 18/17 A2982 RMK A01 T01800166  RH  091%=      5-min Rain = 0
KST3 200953Z 20010KT 18/17 A2982 RMK A01 T01800166  RH  091%=      5-min Rain = 0
KST3 200954Z 20010KT 18/17 A2982 RMK A01 T01800166  RH  091%=      5-min Rain = 0
KST3 200955Z 21010KT 18/17 A2982 RMK A01 T01790165  RH  092%=      5-min Rain = 0
KST3 200956Z 21010KT 18/16 A2983 RMK A01 T01770164  RH  092%=      5-min Rain = 0
KST3 200957Z 21010KT 18/16 A2983 RMK A01 T01760164  RH  093%=      5-min Rain = 0
KST3 200958Z 21009KT 18/16 A2983 RMK A01 T01750164  RH  093%=      5-min Rain = 0
KST3 200959Z 21009KT 17/16 A2983 RMK A01 T01740164  RH  094%=      5-min Rain = 0
KST3 201000Z 21009KT 17/16 A2983 RMK A01 T01740164  RH  094%=      5-min Rain = 0
KST3 201001Z 21009KT 17/16 A2983 RMK A01 T01730164  RH  094%=      5-min Rain = 0
KST3 201002Z 21009KT 17/17 A2983 RMK A01 T01730165  RH  094%=      5-min Rain = 0
KST3 201003Z 21009KT 17/17 A2983 RMK A01 T01730165  RH  095%=      5-min Rain = 0
KST3 201004Z 21009KT 17/16 A2983 RMK A01 T01730164  RH  094%=      5-min Rain = 0
KST3 201005Z 21009KT 17/16 A2983 RMK A01 T01730164  RH  094%=      5-min Rain = 0
KST3 201006Z 21009KT 17/17 A2983 RMK A01 T01730165  RH  095%=      5-min Rain = 0
KST3 201007Z 20009KT 17/17 A2983 RMK A01 T01730165  RH  095%=      5-min Rain = 0
KST3 201008Z 20009KT 17/17 A2983 RMK A01 T01730165  RH  095%=      5-min Rain = 0
KST3 201009Z 20009KT 17/17 A2983 RMK A01 T01740165  RH  095%=      5-min Rain = 0
KST3 201010Z 20009KT 18/17 A2983 RMK A01 T01750165  RH  094%=      5-min Rain = 0
KST3 201011Z 20009KT 18/17 A2983 RMK A01 T01760166  RH  094%=      5-min Rain = 0
KST3 201012Z 20009KT 18/17 A2983 RMK A01 T01770166  RH  093%=      5-min Rain = 0
KST3 201013Z 21010KT 18/17 A2983 RMK A01 T01780166  RH  093%=      5-min Rain = 0
KST3 201014Z 20010KT 18/17 A2983 RMK A01 T01780165  RH  092%=      5-min Rain = 0
KST3 201015Z 21009KT 18/17 A2983 RMK A01 T01780166  RH  092%=      5-min Rain = 0
KST3 201016Z 21009KT 18/17 A2983 RMK A01 T01780165  RH  092%=      5-min Rain = 0
KST3 201017Z 20009KT 18/17 A2983 RMK A01 T01790166  RH  092%=      5-min Rain = 0
KST3 201018Z 20009KT 18/17 A2983 RMK A01 T01800167  RH  092%=      5-min Rain = 0
KST3 201019Z 20009KT 18/17 A2983 RMK A01 T01820167  RH  091%=      5-min Rain = 0
KST3 201020Z 20009KT 18/17 A2983 RMK A01 T01830167  RH  091%=      5-min Rain = 0
KST3 201021Z 20009KT 18/17 A2983 RMK A01 T01840167  RH  090%=      5-min Rain = 0
KST3 201022Z 20009KT 19/17 A2983 RMK A01 T01850167  RH  089%=      5-min Rain = 0
KST3 201023Z 21009KT 19/17 A2983 RMK A01 T01850167  RH  089%=      5-min Rain = 0
KST3 201024Z 21010KT 19/17 A2982 RMK A01 T01850167  RH  089%=      5-min Rain = 0
KST3 201025Z 20009KT 19/17 A2982 RMK A01 T01850168  RH  090%=      5-min Rain = 0
KST3 201026Z 20009KT 19/17 A2982 RMK A01 T01850168  RH  090%=      5-min Rain = 0
KST3 201027Z 20009KT 19/17 A2982 RMK A01 T01850168  RH  090%=      5-min Rain = 0
KST3 201028Z 20009KT 19/17 A2982 RMK A01 T01850167  RH  090%=      5-min Rain = 0
KST3 201029Z 20009KT 19/17 A2982 RMK A01 T01850168  RH  090%=      5-min Rain = 0
KST3 201030Z 21009KT 19/17 A2982 RMK A01 T01850167  RH  090%=      5-min Rain = 0
KST3 201031Z 21009KT 18/17 A2982 RMK A01 T01840167  RH  090%=      5-min Rain = 0
KST3 201032Z 21009KT 18/17 A2982 RMK A01 T01830167  RH  090%=      5-min Rain = 0
KST3 201033Z 21008KT 18/17 A2982 RMK A01 T01820167  RH  091%=      5-min Rain = 0
KST3 201034Z 21008KT 18/17 A2982 RMK A01 T01820167  RH  091%=      5-min Rain = 0
KST3 201035Z 21009KT 18/17 A2982 RMK A01 T01810167  RH  091%=      5-min Rain = 0
KST3 201036Z 21009KT 18/17 A2982 RMK A01 T01800166  RH  092%=      5-min Rain = 0
KST3 201037Z 20009KT 18/17 A2982 RMK A01 T01800166  RH  092%=      5-min Rain = 0
KST3 201038Z 21009KT 18/17 A2982 RMK A01 T01800167  RH  092%=      5-min Rain = 0
KST3 201039Z 21009KT 18/17 A2982 RMK A01 T01800167  RH  092%=      5-min Rain = 0
KST3 201040Z 21009KT 18/17 A2982 RMK A01 T01800166  RH  092%=      5-min Rain = 0
KST3 201041Z 21009KT 18/17 A2982 RMK A01 T01790166  RH  092%=      5-min Rain = 0
KST3 201042Z 21009KT 18/17 A2982 RMK A01 T01790167  RH  092%=      5-min Rain = 0
KST3 201043Z 21009KT 18/17 A2982 RMK A01 T01790166  RH  092%=      5-min Rain = 0
KST3 201044Z 21009KT 18/17 A2982 RMK A01 T01790166  RH  092%=      5-min Rain = 0
KST3 201045Z 21009KT 18/17 A2982 RMK A01 T01780166  RH  093%=      5-min Rain = 0
KST3 201046Z 21009KT 18/17 A2982 RMK A01 T01790167  RH  093%=      5-min Rain = 0
KST3 201047Z 21009KT 18/17 A2982 RMK A01 T01790167  RH  093%=      5-min Rain = 0
KST3 201048Z 22009KT 18/17 A2982 RMK A01 T01790167  RH  093%=      5-min Rain = 0
KST3 201049Z 22009KT 18/17 A2982 RMK A01 T01790167  RH  093%=      5-min Rain = 0
KST3 201050Z 22010KT 18/17 A2982 RMK A01 T01790168  RH  093%=      5-min Rain = 0
KST3 201051Z 22010KT 18/17 A2983 RMK A01 T01800169  RH  093%=      5-min Rain = 0
KST3 201052Z 22009KT 18/17 A2983 RMK A01 T01810169  RH  093%=      5-min Rain = 0
KST3 201053Z 22010KT 18/17 A2983 RMK A01 T01820170  RH  092%=      5-min Rain = 0
KST3 201054Z 22010KT 18/17 A2983 RMK A01 T01830170  RH  092%=      5-min Rain = 0
KST3 201055Z 22010KT 18/17 A2982 RMK A01 T01840170  RH  092%=      5-min Rain = 0
KST3 201056Z 22009KT 18/17 A2982 RMK A01 T01840170  RH  091%=      5-min Rain = 0
KST3 201057Z 22009KT 18/17 A2982 RMK A01 T01840170  RH  091%=      5-min Rain = 0
KST3 201058Z 22009KT 18/17 A2982 RMK A01 T01840170  RH  091%=      5-min Rain = 0
KST3 201059Z 22010KT 18/17 A2982 RMK A01 T01840170  RH  091%=      5-min Rain = 0
KST3 201100Z 22009KT 18/17 A2982 RMK A01 T01840169  RH  091%=      5-min Rain = 0
KST3 201101Z 22009KT 19/17 A2982 RMK A01 T01850170  RH  091%=      5-min Rain = 0
KST3 201102Z 22009KT 19/17 A2982 RMK A01 T01850170  RH  091%=      5-min Rain = 0
KST3 201103Z 22009KT 19/17 A2982 RMK A01 T01850169  RH  091%=      5-min Rain = 0
KST3 201104Z 22009KT 18/17 A2982 RMK A01 T01840169  RH  091%=      5-min Rain = 0
KST3 201105Z 22009KT 18/17 A2982 RMK A01 T01840169  RH  091%=      5-min Rain = 0
KST3 201106Z 22009KT 18/17 A2982 RMK A01 T01830169  RH  092%=      5-min Rain = 0
KST3 201107Z 22009KT 18/17 A2982 RMK A01 T01830169  RH  092%=      5-min Rain = 0
KST3 201108Z 22009KT 18/17 A2982 RMK A01 T01830169  RH  092%=      5-min Rain = 0
KST3 201109Z 22009KT 18/17 A2982 RMK A01 T01830169  RH  092%=      5-min Rain = 0
KST3 201110Z 22009KT 18/17 A2982 RMK A01 T01830168  RH  091%=      5-min Rain = 0
KST3 201111Z 22009KT 18/17 A2982 RMK A01 T01820168  RH  091%=      5-min Rain = 0
KST3 201112Z 22009KT 18/17 A2982 RMK A01 T01830169  RH  091%=      5-min Rain = 0
KST3 201113Z 23009KT 18/17 A2982 RMK A01 T01840169  RH  091%=      5-min Rain = 0
KST3 201114Z 23009KT 18/17 A2982 RMK A01 T01840169  RH  090%=      5-min Rain = 0
KST3 201115Z 22009KT 18/17 A2982 RMK A01 T01840168  RH  090%=      5-min Rain = 0
KST3 201116Z 23009KT 18/17 A2982 RMK A01 T01840168  RH  090%=      5-min Rain = 0
KST3 201117Z 22009KT 19/17 A2982 RMK A01 T01850168  RH  090%=      5-min Rain = 0
KST3 201118Z 22009KT 19/17 A2982 RMK A01 T01850168  RH  090%=      5-min Rain = 0
KST3 201119Z 23009KT 19/17 A2982 RMK A01 T01850168  RH  090%=      5-min Rain = 0
KST3 201120Z 22009KT 18/17 A2982 RMK A01 T01840168  RH  090%=      5-min Rain = 0
KST3 201121Z 22009KT 18/17 A2982 RMK A01 T01830168  RH  091%=      5-min Rain = 0
KST3 201122Z 22009KT 18/17 A2982 RMK A01 T01830168  RH  091%=      5-min Rain = 0
KST3 201123Z 22009KT 18/17 A2982 RMK A01 T01830168  RH  091%=      5-min Rain = 0
KST3 201124Z 22009KT 18/17 A2982 RMK A01 T01830168  RH  091%=      5-min Rain = 0
KST3 201125Z 22009KT 18/17 A2982 RMK A01 T01830168  RH  091%=      5-min Rain = 0
KST3 201126Z 22009KT 18/17 A2982 RMK A01 T01830168  RH  091%=      5-min Rain = 0
KST3 201127Z 23009KT 18/17 A2982 RMK A01 T01820168  RH  091%=      5-min Rain = 0
KST3 201128Z 23009KT 18/17 A2982 RMK A01 T01820168  RH  091%=      5-min Rain = 0
KST3 201129Z 23009KT 18/17 A2982 RMK A01 T01820167  RH  091%=      5-min Rain = 0
KST3 201130Z 23009KT 18/17 A2982 RMK A01 T01810167  RH  091%=      5-min Rain = 0
KST3 201131Z 23010KT 18/17 A2982 RMK A01 T01810167  RH  092%=      5-min Rain = 0
KST3 201132Z 23010KT 18/17 A2982 RMK A01 T01810167  RH  092%=      5-min Rain = 0
KST3 201133Z 23010KT 18/17 A2983 RMK A01 T01810167  RH  092%=      5-min Rain = 0
KST3 201134Z 23010KT 18/17 A2983 RMK A01 T01810167  RH  092%=      5-min Rain = 0
KST3 201135Z 23010KT 18/17 A2983 RMK A01 T01810168  RH  092%=      5-min Rain = 0
KST3 201136Z 23010KT 18/17 A2983 RMK A01 T01800167  RH  092%=      5-min Rain = 0
KST3 201137Z 23009KT 18/17 A2983 RMK A01 T01800167  RH  092%=      5-min Rain = 0
KST3 201138Z 23009KT 18/17 A2983 RMK A01 T01800167  RH  092%=      5-min Rain = 0
KST3 201139Z 23009KT 18/17 A2983 RMK A01 T01800167  RH  092%=      5-min Rain = 0
KST3 201140Z 24010KT 18/17 A2983 RMK A01 T01800167  RH  092%=      5-min Rain = 0
KST3 201141Z 23009KT 18/17 A2983 RMK A01 T01800167  RH  092%=      5-min Rain = 0
KST3 201142Z 23009KT 18/17 A2983 RMK A01 T01800167  RH  092%=      5-min Rain = 0
KST3 201143Z 23010KT 18/17 A2983 RMK A01 T01800168  RH  092%=      5-min Rain = 0
KST3 201144Z 23010KT 18/17 A2983 RMK A01 T01800167  RH  092%=      5-min Rain = 0
KST3 201145Z 23009KT 18/17 A2983 RMK A01 T01810168  RH  092%=      5-min Rain = 0
KST3 201146Z 23010KT 18/17 A2983 RMK A01 T01810168  RH  092%=      5-min Rain = 0
KST3 201147Z 23009KT 18/17 A2983 RMK A01 T01810167  RH  091%=      5-min Rain = 0
KST3 201148Z 23009KT 18/17 A2983 RMK A01 T01810167  RH  091%=      5-min Rain = 0
KST3 201149Z 23009KT 18/17 A2983 RMK A01 T01820167  RH  091%=      5-min Rain = 0
KST3 201150Z 22009KT 18/17 A2983 RMK A01 T01810167  RH  092%=      5-min Rain = 0
KST3 201151Z 22009KT 18/17 A2983 RMK A01 T01810167  RH  092%=      5-min Rain = 0
KST3 201152Z 22009KT 18/17 A2983 RMK A01 T01810167  RH  092%=      5-min Rain = 0
KST3 201153Z 22009KT 18/17 A2983 RMK A01 T01810167  RH  092%=      5-min Rain = 0
KST3 201154Z 23009KT 18/17 A2983 RMK A01 T01810168  RH  092%=      5-min Rain = 0
KST3 201155Z 22009KT 18/17 A2983 RMK A01 T01800167  RH  092%=      5-min Rain = 0
KST3 201156Z 22009KT 18/17 A2983 RMK A01 T01810168  RH  092%=      5-min Rain = 0
KST3 201157Z 22009KT 18/17 A2983 RMK A01 T01810168  RH  092%=      5-min Rain = 0
KST3 201158Z 22009KT 18/17 A2983 RMK A01 T01810168  RH  092%=      5-min Rain = 0
KST3 201159Z 22008KT 18/17 A2983 RMK A01 T01820169  RH  092%=      5-min Rain = 0
KST3 201200Z 22008KT 18/17 A2983 RMK A01 T01830169  RH  092%=      5-min Rain = 0
KST3 201201Z 22008KT 18/17 A2983 RMK A01 T01830169  RH  092%=      5-min Rain = 0
KST3 201202Z 23008KT 18/17 A2983 RMK A01 T01830169  RH  091%=      5-min Rain = 0
KST3 201203Z 23008KT 18/17 A2983 RMK A01 T01830169  RH  091%=      5-min Rain = 0
KST3 201204Z 23007KT 18/17 A2983 RMK A01 T01840169  RH  091%=      5-min Rain = 0
KST3 201205Z 23007KT 18/17 A2983 RMK A01 T01840169  RH  091%=      5-min Rain = 0
KST3 201206Z 23007KT 19/17 A2983 RMK A01 T01850170  RH  091%=      5-min Rain = 0
KST3 201207Z 22006KT 18/17 A2983 RMK A01 T01840169  RH  091%=      5-min Rain = 0
KST3 201208Z 22006KT 19/17 A2983 RMK A01 T01850170  RH  091%=      5-min Rain = 0
KST3 201209Z 22007KT 19/17 A2983 RMK A01 T01850170  RH  091%=      5-min Rain = 0
KST3 201210Z 22007KT 19/17 A2983 RMK A01 T01850170  RH  091%=      5-min Rain = 0
KST3 201211Z 22007KT 19/17 A2983 RMK A01 T01850170  RH  091%=      5-min Rain = 0
KST3 201212Z 22007KT 19/17 A2983 RMK A01 T01850170  RH  091%=      5-min Rain = 0
KST3 201213Z 22007KT 19/17 A2983 RMK A01 T01850171  RH  091%=      5-min Rain = 0
KST3 201214Z 22007KT 19/17 A2983 RMK A01 T01860171  RH  091%=      5-min Rain = 0
KST3 201215Z 22007KT 19/17 A2983 RMK A01 T01860171  RH  091%=      5-min Rain = 0
KST3 201216Z 22007KT 19/17 A2983 RMK A01 T01870172  RH  091%=      5-min Rain = 0
KST3 201217Z 22007KT 19/17 A2983 RMK A01 T01880173  RH  091%=      5-min Rain = 0
KST3 201218Z 22007KT 19/17 A2983 RMK A01 T01880173  RH  091%=      5-min Rain = 0
KST3 201219Z 22007KT 19/17 A2983 RMK A01 T01890173  RH  090%=      5-min Rain = 0
KST3 201220Z 22007KT 19/17 A2983 RMK A01 T01900173  RH  090%=      5-min Rain = 0
KST3 201221Z 22007KT 19/17 A2983 RMK A01 T01910173  RH  090%=      5-min Rain = 0
KST3 201222Z 23007KT 19/17 A2983 RMK A01 T01920174  RH  089%=      5-min Rain = 0
KST3 201223Z 23006KT 19/17 A2983 RMK A01 T01920174  RH  089%=      5-min Rain = 0
KST3 201224Z 23007KT 19/17 A2984 RMK A01 T01930174  RH  089%=      5-min Rain = 0
KST3 201225Z 23006KT 19/17 A2984 RMK A01 T01930174  RH  089%=      5-min Rain = 0
KST3 201226Z 23007KT 19/17 A2984 RMK A01 T01940174  RH  088%=      5-min Rain = 0
KST3 201227Z 23007KT 19/17 A2984 RMK A01 T01940174  RH  088%=      5-min Rain = 0
KST3 201228Z 24007KT 20/18 A2984 RMK A01 T01950175  RH  088%=      5-min Rain = 0
KST3 201229Z 24008KT 20/18 A2984 RMK A01 T01960175  RH  088%=      5-min Rain = 0
KST3 201230Z 24008KT 20/18 A2984 RMK A01 T01960175  RH  088%=      5-min Rain = 0
KST3 201231Z 24008KT 20/18 A2984 RMK A01 T01960175  RH  088%=      5-min Rain = 0
KST3 201232Z 23008KT 20/18 A2984 RMK A01 T01970175  RH  087%=      5-min Rain = 0
KST3 201233Z 24007KT 20/18 A2984 RMK A01 T01980176  RH  087%=      5-min Rain = 0
KST3 201234Z 23007KT 20/18 A2984 RMK A01 T01980176  RH  087%=      5-min Rain = 0
KST3 201235Z 23007KT 20/18 A2984 RMK A01 T01980176  RH  087%=      5-min Rain = 0
KST3 201236Z 23007KT 20/18 A2984 RMK A01 T01990177  RH  087%=      5-min Rain = 0
KST3 201237Z 23007KT 20/18 A2984 RMK A01 T01990176  RH  086%=      5-min Rain = 0
KST3 201238Z 23008KT 20/18 A2984 RMK A01 T02000176  RH  086%=      5-min Rain = 0
KST3 201239Z 23009KT 20/18 A2984 RMK A01 T02000175  RH  086%=      5-min Rain = 0
KST3 201240Z 23007KT 20/18 A2984 RMK A01 T02000176  RH  086%=      5-min Rain = 0
KST3 201241Z 23009KT 20/18 A2984 RMK A01 T02010176  RH  086%=      5-min Rain = 0
KST3 201242Z 23007KT 20/18 A2984 RMK A01 T02010176  RH  086%=      5-min Rain = 0
KST3 201243Z 23009KT 20/18 A2984 RMK A01 T02010176  RH  086%=      5-min Rain = 0
KST3 201244Z 23008KT 20/18 A2984 RMK A01 T02010177  RH  086%=      5-min Rain = 0
KST3 201245Z 23009KT 20/18 A2984 RMK A01 T02020177  RH  085%=      5-min Rain = 0
KST3 201246Z 23008KT 20/18 A2984 RMK A01 T02020177  RH  085%=      5-min Rain = 0
KST3 201247Z 23009KT 20/18 A2984 RMK A01 T02030178  RH  085%=      5-min Rain = 0
KST3 201248Z 23009KT 20/18 A2984 RMK A01 T02030178  RH  085%=      5-min Rain = 0
KST3 201249Z 23010KT 20/18 A2984 RMK A01 T02040177  RH  085%=      5-min Rain = 0
KST3 201250Z 23010KT 20/18 A2984 RMK A01 T02040177  RH  084%=      5-min Rain = 0
KST3 201251Z 23008KT 21/18 A2984 RMK A01 T02050178  RH  085%=      5-min Rain = 0
KST3 201252Z 23010KT 21/18 A2984 RMK A01 T02050178  RH  085%=      5-min Rain = 0
KST3 201253Z 23010KT 21/18 A2984 RMK A01 T02060178  RH  084%=      5-min Rain = 0
KST3 201254Z 23009KT 21/18 A2984 RMK A01 T02060179  RH  084%=      5-min Rain = 0
KST3 201255Z 23011KT 21/18 A2984 RMK A01 T02060178  RH  084%=      5-min Rain = 0
KST3 201256Z 23011KT 21/18 A2984 RMK A01 T02070178  RH  084%=      5-min Rain = 0
KST3 201257Z 23010KT 21/18 A2984 RMK A01 T02070179  RH  084%=      5-min Rain = 0
KST3 201258Z 23010KT 21/18 A2984 RMK A01 T02080179  RH  084%=      5-min Rain = 0
KST3 201259Z 23010KT 21/18 A2984 RMK A01 T02080180  RH  084%=      5-min Rain = 0
KST3 201300Z 23011KT 21/18 A2984 RMK A01 T02090180  RH  083%=      5-min Rain = 0
KST3 201301Z 23010KT 21/18 A2984 RMK A01 T02090180  RH  084%=      5-min Rain = 0
KST3 201302Z 23011KT 21/18 A2984 RMK A01 T02100181  RH  084%=      5-min Rain = 0
KST3 201303Z 22012KT 21/18 A2984 RMK A01 T02100180  RH  083%=      5-min Rain = 0
KST3 201304Z 22012KT 21/18 A2984 RMK A01 T02110179  RH  082%=      5-min Rain = 0
KST3 201305Z 22012KT 21/18 A2984 RMK A01 T02110179  RH  082%=      5-min Rain = 0
KST3 201306Z 22012KT 21/18 A2984 RMK A01 T02110179  RH  082%=      5-min Rain = 0
KST3 201307Z 22011KT 21/18 A2984 RMK A01 T02110179  RH  082%=      5-min Rain = 0
KST3 201308Z 22010KT 21/18 A2984 RMK A01 T02120180  RH  082%=      5-min Rain = 0
KST3 201309Z 22009KT 21/18 A2984 RMK A01 T02120182  RH  083%=      5-min Rain = 0
KST3 201310Z 22010KT 21/18 A2984 RMK A01 T02130183  RH  083%=      5-min Rain = 0
KST3 201311Z 22010KT 21/18 A2984 RMK A01 T02130182  RH  082%=      5-min Rain = 0
KST3 201312Z 22010KT 21/18 A2984 RMK A01 T02140183  RH  082%=      5-min Rain = 0
KST3 201313Z 22010KT 21/18 A2984 RMK A01 T02140182  RH  082%=      5-min Rain = 0
KST3 201314Z 22012KT 22/18 A2984 RMK A01 T02150182  RH  081%=      5-min Rain = 0
KST3 201315Z 22012KT 21/18 A2984 RMK A01 T02140180  RH  081%=      5-min Rain = 0
KST3 201316Z 22010KT 22/18 A2984 RMK A01 T02150181  RH  081%=      5-min Rain = 0
KST3 201317Z 22012KT 22/18 A2984 RMK A01 T02150183  RH  082%=      5-min Rain = 0
KST3 201318Z 22010KT 22/18 A2984 RMK A01 T02150183  RH  082%=      5-min Rain = 0
KST3 201319Z 22010KT 22/18 A2984 RMK A01 T02160183  RH  082%=      5-min Rain = 0
KST3 201320Z 22012KT 22/18 A2984 RMK A01 T02160183  RH  081%=      5-min Rain = 0
KST3 201321Z 22010KT 22/18 A2984 RMK A01 T02170183  RH  081%=      5-min Rain = 0
KST3 201322Z 22012KT 22/18 A2984 RMK A01 T02170183  RH  081%=      5-min Rain = 0
KST3 201323Z 22010KT 22/18 A2984 RMK A01 T02180183  RH  081%=      5-min Rain = 0
KST3 201324Z 22010KT 22/19 A2984 RMK A01 T02180185  RH  082%=      5-min Rain = 0
KST3 201325Z 22013KT 22/19 A2984 RMK A01 T02190185  RH  081%=      5-min Rain = 0
KST3 201326Z 22012KT 22/18 A2984 RMK A01 T02190183  RH  080%=      5-min Rain = 0
KST3 201327Z 22012KT 22/18 A2984 RMK A01 T02190184  RH  081%=      5-min Rain = 0
KST3 201328Z 22010KT 22/19 A2984 RMK A01 T02200185  RH  080%=      5-min Rain = 0
KST3 201329Z 22011KT 22/19 A2984 RMK A01 T02200185  RH  080%=      5-min Rain = 0
KST3 201330Z 22010KT 22/19 A2984 RMK A01 T02200186  RH  081%=      5-min Rain = 0
KST3 201331Z 22011KT 22/19 A2984 RMK A01 T02210187  RH  081%=      5-min Rain = 0
KST3 201332Z 21012KT 22/19 A2984 RMK A01 T02220186  RH  080%=      5-min Rain = 0
KST3 201333Z 22011KT 22/18 A2984 RMK A01 T02210184  RH  080%=      5-min Rain = 0
KST3 201334Z 22011KT 22/19 A2984 RMK A01 T02220187  RH  081%=      5-min Rain = 0
KST3 201335Z 21013KT 22/19 A2984 RMK A01 T02220186  RH  080%=      5-min Rain = 0
KST3 201336Z 22012KT 22/19 A2984 RMK A01 T02230185  RH  079%=      5-min Rain = 0
KST3 201337Z 22013KT 22/19 A2984 RMK A01 T02230185  RH  079%=      5-min Rain = 0
KST3 201338Z 21011KT 22/19 A2984 RMK A01 T02230186  RH  080%=      5-min Rain = 0
KST3 201339Z 21011KT 22/19 A2984 RMK A01 T02230188  RH  080%=      5-min Rain = 0
KST3 201340Z 21012KT 22/19 A2984 RMK A01 T02240187  RH  079%=      5-min Rain = 0
KST3 201341Z 22011KT 22/19 A2984 RMK A01 T02240188  RH  080%=      5-min Rain = 0
KST3 201342Z 21010KT 23/19 A2984 RMK A01 T02250189  RH  080%=      5-min Rain = 0
KST3 201343Z 21011KT 23/19 A2984 RMK A01 T02260189  RH  080%=      5-min Rain = 0
KST3 201344Z 22009KT 23/19 A2984 RMK A01 T02260190  RH  080%=      5-min Rain = 0
KST3 201345Z 22011KT 23/19 A2984 RMK A01 T02270191  RH  080%=      5-min Rain = 0
KST3 201346Z 21012KT 23/19 A2984 RMK A01 T02280189  RH  078%=      5-min Rain = 0
KST3 201347Z 22013KT 23/19 A2984 RMK A01 T02280187  RH  078%=      5-min Rain = 0
KST3 201348Z 22013KT 23/19 A2984 RMK A01 T02280187  RH  078%=      5-min Rain = 0
KST3 201349Z 22013KT 23/19 A2984 RMK A01 T02270187  RH  078%=      5-min Rain = 0
KST3 201350Z 22009KT 23/19 A2984 RMK A01 T02270189  RH  079%=      5-min Rain = 0
KST3 201351Z 21012KT 23/19 A2984 RMK A01 T02290191  RH  079%=      5-min Rain = 0
KST3 201352Z 21013KT 23/19 A2984 RMK A01 T02300189  RH  078%=      5-min Rain = 0
KST3 201353Z 21012KT 23/19 A2984 RMK A01 T02290188  RH  078%=      5-min Rain = 0
KST3 201354Z 21010KT 23/19 A2984 RMK A01 T02290190  RH  079%=      5-min Rain = 0
KST3 201355Z 21012KT 23/19 A2984 RMK A01 T02300191  RH  078%=      5-min Rain = 0
KST3 201356Z 22013KT 23/19 A2984 RMK A01 T02310187  RH  077%=      5-min Rain = 0
KST3 201357Z 22012KT 23/19 A2984 RMK A01 T02300187  RH  077%=      5-min Rain = 0
KST3 201358Z 22012KT 23/19 A2984 RMK A01 T02300189  RH  078%=      5-min Rain = 0
KST3 201359Z 22013KT 23/19 A2984 RMK A01 T02300188  RH  077%=      5-min Rain = 0
KST3 201400Z 21012KT 23/19 A2984 RMK A01 T02310188  RH  077%=      5-min Rain = 0
KST3 201401Z 22012KT 23/19 A2984 RMK A01 T02310189  RH  077%=      5-min Rain = 0
KST3 201402Z 21011KT 23/19 A2984 RMK A01 T02320189  RH  077%=      5-min Rain = 0
KST3 201403Z 21010KT 23/19 A2984 RMK A01 T02330191  RH  078%=      5-min Rain = 0
KST3 201404Z 21012KT 23/19 A2984 RMK A01 T02330191  RH  077%=      5-min Rain = 0
KST3 201405Z 22010KT 23/19 A2984 RMK A01 T02330189  RH  076%=      5-min Rain = 0
KST3 201406Z 21011KT 23/19 A2984 RMK A01 T02340192  RH  077%=      5-min Rain = 0
KST3 201407Z 21012KT 23/19 A2984 RMK A01 T02340190  RH  076%=      5-min Rain = 0
KST3 201408Z 21012KT 24/19 A2984 RMK A01 T02350190  RH  076%=      5-min Rain = 0
KST3 201409Z 21012KT 24/19 A2984 RMK A01 T02350192  RH  077%=      5-min Rain = 0
KST3 201410Z 21013KT 24/19 A2984 RMK A01 T02360191  RH  076%=      5-min Rain = 0
KST3 201411Z 21013KT 24/19 A2983 RMK A01 T02360189  RH  075%=      5-min Rain = 0
KST3 201412Z 21012KT 24/19 A2984 RMK A01 T02360190  RH  075%=      5-min Rain = 0
KST3 201413Z 21010KT 24/19 A2983 RMK A01 T02360191  RH  076%=      5-min Rain = 0
KST3 201414Z 21012KT 24/19 A2983 RMK A01 T02360192  RH  076%=      5-min Rain = 0
KST3 201415Z 21012KT 24/19 A2983 RMK A01 T02370190  RH  075%=      5-min Rain = 0
KST3 201416Z 21012KT 24/19 A2984 RMK A01 T02370190  RH  075%=      5-min Rain = 0
KST3 201417Z 20010KT 24/19 A2984 RMK A01 T02370192  RH  076%=      5-min Rain = 0
KST3 201418Z 21011KT 24/19 A2984 RMK A01 T02380191  RH  075%=      5-min Rain = 0
KST3 201419Z 21011KT 24/19 A2984 RMK A01 T02380192  RH  076%=      5-min Rain = 0
KST3 201420Z 21011KT 24/19 A2984 RMK A01 T02390191  RH  075%=      5-min Rain = 0
KST3 201421Z 22012KT 24/19 A2984 RMK A01 T02390192  RH  075%=      5-min Rain = 0
KST3 201422Z 21012KT 24/19 A2984 RMK A01 T02390191  RH  075%=      5-min Rain = 0
KST3 201423Z 20012KT 24/19 A2984 RMK A01 T02390191  RH  074%=      5-min Rain = 0
KST3 201424Z 21012KT 24/19 A2984 RMK A01 T02400192  RH  075%=      5-min Rain = 0
KST3 201425Z 20010KT 24/19 A2984 RMK A01 T02410192  RH  074%=      5-min Rain = 0
KST3 201426Z 21009KT 24/19 A2984 RMK A01 T02410193  RH  075%=      5-min Rain = 0
KST3 201427Z 20012KT 24/19 A2983 RMK A01 T02420193  RH  074%=      5-min Rain = 0
KST3 201428Z 21013KT 24/19 A2983 RMK A01 T02420192  RH  074%=      5-min Rain = 0
KST3 201429Z 21013KT 24/19 A2983 RMK A01 T02420192  RH  074%=      5-min Rain = 0
KST3 201430Z 21011KT 24/19 A2984 RMK A01 T02420192  RH  074%=      5-min Rain = 0
KST3 201431Z 21010KT 24/19 A2984 RMK A01 T02420192  RH  074%=      5-min Rain = 0
KST3 201432Z 21012KT 24/19 A2984 RMK A01 T02430192  RH  073%=      5-min Rain = 0
KST3 201433Z 21012KT 24/19 A2984 RMK A01 T02430193  RH  074%=      5-min Rain = 0
KST3 201434Z 21012KT 24/19 A2984 RMK A01 T02430192  RH  073%=      5-min Rain = 0
KST3 201435Z 21011KT 24/19 A2984 RMK A01 T02430193  RH  074%=      5-min Rain = 0
KST3 201436Z 21011KT 24/19 A2984 RMK A01 T02430194  RH  074%=      5-min Rain = 0
KST3 201437Z 20010KT 24/19 A2984 RMK A01 T02430193  RH  074%=      5-min Rain = 0
KST3 201438Z 21010KT 25/20 A2984 RMK A01 T02450198  RH  075%=      5-min Rain = 0
KST3 201439Z 21011KT 25/20 A2984 RMK A01 T02470196  RH  073%=      5-min Rain = 0
KST3 201440Z 21010KT 25/20 A2984 RMK A01 T02470196  RH  073%=      5-min Rain = 0
KST3 201441Z 22011KT 25/20 A2984 RMK A01 T02470195  RH  073%=      5-min Rain = 0
KST3 201442Z 22010KT 25/19 A2984 RMK A01 T02470193  RH  072%=      5-min Rain = 0
KST3 201443Z 22011KT 25/19 A2984 RMK A01 T02470194  RH  072%=      5-min Rain = 0
KST3 201444Z 21012KT 25/19 A2984 RMK A01 T02470194  RH  073%=      5-min Rain = 0
KST3 201445Z 21010KT 25/20 A2984 RMK A01 T02470195  RH  073%=      5-min Rain = 0
KST3 201446Z 20008KT 25/20 A2984 RMK A01 T02480197  RH  073%=      5-min Rain = 0
KST3 201447Z 22009KT 25/20 A2984 RMK A01 T02500196  RH  072%=      5-min Rain = 0
KST3 201448Z 22012KT 25/19 A2984 RMK A01 T02510192  RH  070%=      5-min Rain = 0
KST3 201449Z 22010KT 25/19 A2984 RMK A01 T02500193  RH  071%=      5-min Rain = 0
KST3 201450Z 21010KT 25/19 A2984 RMK A01 T02500194  RH  071%=      5-min Rain = 0
KST3 201451Z 21010KT 25/19 A2984 RMK A01 T02510193  RH  070%=      5-min Rain = 0
KST3 201452Z 20010KT 25/19 A2984 RMK A01 T02510193  RH  070%=      5-min Rain = 0
KST3 201453Z 22008KT 25/20 A2984 RMK A01 T02520196  RH  071%=      5-min Rain = 0
KST3 201454Z 23011KT 25/20 A2984 RMK A01 T02530195  RH  070%=      5-min Rain = 0
KST3 201455Z 22012KT 25/19 A2984 RMK A01 T02540192  RH  069%=      5-min Rain = 0
KST3 201456Z 22012KT 25/19 A2984 RMK A01 T02530191  RH  068%=      5-min Rain = 0
KST3 201457Z 20010KT 25/19 A2984 RMK A01 T02530191  RH  069%=      5-min Rain = 0
KST3 201458Z 21011KT 25/19 A2984 RMK A01 T02530189  RH  068%=      5-min Rain = 0
KST3 201459Z 22012KT 25/19 A2984 RMK A01 T02530187  RH  067%=      5-min Rain = 0
KST3 201500Z 21011KT 25/18 A2984 RMK A01 T02540183  RH  065%=      5-min Rain = 0
KST3 201501Z 22011KT 25/19 A2983 RMK A01 T02530187  RH  067%=      5-min Rain = 0
KST3 201502Z 21011KT 25/19 A2983 RMK A01 T02530189  RH  068%=      5-min Rain = 0
KST3 201503Z 21012KT 25/19 A2983 RMK A01 T02530186  RH  066%=      5-min Rain = 0
KST3 201504Z 21011KT 25/18 A2983 RMK A01 T02540184  RH  066%=      5-min Rain = 0
KST3 201505Z 20009KT 25/19 A2983 RMK A01 T02540189  RH  067%=      5-min Rain = 0
KST3 201506Z 21013KT 26/19 A2983 RMK A01 T02550188  RH  067%=      5-min Rain = 0
KST3 201507Z 21011KT 26/19 A2983 RMK A01 T02550188  RH  067%=      5-min Rain = 0
KST3 201508Z 21013KT 25/19 A2983 RMK A01 T02540188  RH  067%=      5-min Rain = 0
KST3 201509Z 21010KT 25/19 A2983 RMK A01 T02540188  RH  067%=      5-min Rain = 0
KST3 201510Z 22011KT 26/19 A2983 RMK A01 T02550193  RH  068%=      5-min Rain = 0
KST3 201511Z 22013KT 26/19 A2983 RMK A01 T02580188  RH  066%=      5-min Rain = 0
KST3 201512Z 21011KT 26/19 A2983 RMK A01 T02560185  RH  065%=      5-min Rain = 0
KST3 201513Z 21012KT 26/19 A2983 RMK A01 T02550189  RH  067%=      5-min Rain = 0
KST3 201514Z 21012KT 26/19 A2983 RMK A01 T02560186  RH  065%=      5-min Rain = 0
KST3 201515Z 20011KT 26/19 A2983 RMK A01 T02560186  RH  065%=      5-min Rain = 0
KST3 201516Z 21010KT 26/18 A2983 RMK A01 T02560183  RH  064%=      5-min Rain = 0
KST3 201517Z 21009KT 26/19 A2983 RMK A01 T02570189  RH  066%=      5-min Rain = 0
KST3 201518Z 22013KT 26/19 A2983 RMK A01 T02580187  RH  065%=      5-min Rain = 0
KST3 201519Z 21011KT 26/19 A2983 RMK A01 T02580188  RH  065%=      5-min Rain = 0
KST3 201520Z 21011KT 26/19 A2983 RMK A01 T02590187  RH  065%=      5-min Rain = 0
KST3 201521Z 21011KT 26/19 A2983 RMK A01 T02580188  RH  065%=      5-min Rain = 0
KST3 201522Z 22010KT 26/19 A2983 RMK A01 T02570187  RH  065%=      5-min Rain = 0
KST3 201523Z 21012KT 26/19 A2983 RMK A01 T02580185  RH  064%=      5-min Rain = 0
KST3 201524Z 22011KT 26/18 A2983 RMK A01 T02570183  RH  064%=      5-min Rain = 0
KST3 201525Z 20012KT 26/19 A2983 RMK A01 T02570186  RH  065%=      5-min Rain = 0
KST3 201526Z 21013KT 26/19 A2983 RMK A01 T02570185  RH  065%=      5-min Rain = 0
KST3 201527Z 21013KT 26/19 A2983 RMK A01 T02570185  RH  064%=      5-min Rain = 0
KST3 201528Z 22012KT 26/18 A2983 RMK A01 T02570184  RH  064%=      5-min Rain = 0
KST3 201529Z 22012KT 26/19 A2983 RMK A01 T02570187  RH  065%=      5-min Rain = 0
KST3 201530Z 22011KT 26/19 A2983 RMK A01 T02570185  RH  064%=      5-min Rain = 0
KST3 201531Z 21009KT 26/19 A2983 RMK A01 T02570186  RH  065%=      5-min Rain = 0
KST3 201532Z 20008KT 26/19 A2983 RMK A01 T02580187  RH  065%=      5-min Rain = 0
KST3 201533Z 20007KT 26/19 A2983 RMK A01 T02580186  RH  065%=      5-min Rain = 0
KST3 201534Z 21010KT 26/19 A2983 RMK A01 T02590190  RH  065%=      5-min Rain = 0
KST3 201535Z 20011KT 26/19 A2983 RMK A01 T02600189  RH  065%=      5-min Rain = 0
KST3 201536Z 20010KT 26/19 A2983 RMK A01 T02600187  RH  064%=      5-min Rain = 0
KST3 201537Z 20008KT 26/19 A2983 RMK A01 T02590187  RH  064%=      5-min Rain = 0
KST3 201538Z 21009KT 26/19 A2983 RMK A01 T02590192  RH  066%=      5-min Rain = 0
KST3 201539Z 20007KT 26/19 A2983 RMK A01 T02610193  RH  066%=      5-min Rain = 0
KST3 201540Z 22010KT 26/19 A2983 RMK A01 T02630191  RH  065%=      5-min Rain = 0
KST3 201541Z 21009KT 26/19 A2983 RMK A01 T02630189  RH  064%=      5-min Rain = 0
KST3 201542Z 21009KT 26/19 A2983 RMK A01 T02600187  RH  064%=      5-min Rain = 0
KST3 201543Z 21009KT 26/19 A2983 RMK A01 T02590191  RH  066%=      5-min Rain = 0
KST3 201544Z 20011KT 26/19 A2983 RMK A01 T02600190  RH  065%=      5-min Rain = 0
KST3 201545Z 20010KT 26/19 A2983 RMK A01 T02610189  RH  064%=      5-min Rain = 0
KST3 201546Z 21012KT 26/19 A2983 RMK A01 T02610187  RH  064%=      5-min Rain = 0
KST3 201547Z 20011KT 26/19 A2983 RMK A01 T02600187  RH  064%=      5-min Rain = 0
KST3 201548Z 21010KT 26/19 A2983 RMK A01 T02600189  RH  065%=      5-min Rain = 0
KST3 201549Z 21008KT 26/19 A2983 RMK A01 T02610192  RH  066%=      5-min Rain = 0
KST3 201550Z 22009KT 26/19 A2983 RMK A01 T02630194  RH  066%=      5-min Rain = 0
KST3 201551Z 23008KT 26/19 A2983 RMK A01 T02640189  RH  063%=      5-min Rain = 0
KST3 201552Z 22007KT 26/19 A2983 RMK A01 T02640188  RH  063%=      5-min Rain = 0
KST3 201553Z 21005KT 26/19 A2983 RMK A01 T02630192  RH  065%=      5-min Rain = 0
KST3 201554Z 21008KT 26/19 A2983 RMK A01 T02630190  RH  064%=      5-min Rain = 0
KST3 201555Z 21009KT 26/19 A2983 RMK A01 T02630189  RH  064%=      5-min Rain = 0
KST3 201556Z 20009KT 26/19 A2983 RMK A01 T02620190  RH  064%=      5-min Rain = 0
KST3 201557Z 21010KT 26/19 A2983 RMK A01 T02620189  RH  064%=      5-min Rain = 0
KST3 201558Z 20008KT 26/19 A2983 RMK A01 T02620190  RH  065%=      5-min Rain = 0
KST3 201559Z 22009KT 26/19 A2983 RMK A01 T02620191  RH  065%=      5-min Rain = 0
KST3 201600Z 21009KT 26/19 A2983 RMK A01 T02630192  RH  065%=      5-min Rain = 0
KST3 201601Z 21009KT 26/19 A2983 RMK A01 T02630193  RH  065%=      5-min Rain = 0
KST3 201602Z 21009KT 26/19 A2983 RMK A01 T02640191  RH  064%=      5-min Rain = 0
KST3 201603Z 21007KT 26/20 A2983 RMK A01 T02640198  RH  067%=      5-min Rain = 0
KST3 201604Z 22006KT 27/20 A2983 RMK A01 T02660195  RH  065%=      5-min Rain = 0
KST3 201605Z 20008KT 27/20 A2983 RMK A01 T02670195  RH  065%=      5-min Rain = 0
KST3 201606Z 21011KT 27/19 A2983 RMK A01 T02680191  RH  063%=      5-min Rain = 0
KST3 201607Z 23008KT 27/19 A2983 RMK A01 T02660189  RH  063%=      5-min Rain = 0
KST3 201608Z 21008KT 26/19 A2983 RMK A01 T02640190  RH  064%=      5-min Rain = 0
KST3 201609Z 21006KT 27/19 A2983 RMK A01 T02650189  RH  063%=      5-min Rain = 0
KST3 201610Z 20006KT 27/19 A2983 RMK A01 T02650194  RH  065%=      5-min Rain = 0
KST3 201611Z 20008KT 27/19 A2983 RMK A01 T02680192  RH  063%=      5-min Rain = 0
KST3 201612Z 20008KT 27/19 A2983 RMK A01 T02690190  RH  062%=      5-min Rain = 0
KST3 201613Z 19007KT 27/19 A2983 RMK A01 T02700188  RH  061%=      5-min Rain = 0
KST3 201614Z 18004KT 27/19 A2983 RMK A01 T02690190  RH  062%=      5-min Rain = 0
KST3 201615Z 21005KT 27/19 A2983 RMK A01 T02700194  RH  063%=      5-min Rain = 0
KST3 201616Z 21009KT 27/20 A2983 RMK A01 T02710195  RH  063%=      5-min Rain = 0
KST3 201617Z 21008KT 27/20 A2983 RMK A01 T02720197  RH  064%=      5-min Rain = 0
KST3 201618Z 20007KT 27/19 A2983 RMK A01 T02730194  RH  062%=      5-min Rain = 0
KST3 201619Z 19008KT 27/19 A2983 RMK A01 T02730193  RH  062%=      5-min Rain = 0
KST3 201620Z 20008KT 27/19 A2983 RMK A01 T02740194  RH  062%=      5-min Rain = 0
KST3 201621Z 21007KT 28/19 A2983 RMK A01 T02750193  RH  061%=      5-min Rain = 0
KST3 201622Z 23007KT 27/20 A2983 RMK A01 T02740196  RH  062%=      5-min Rain = 0
KST3 201623Z 21005KT 27/19 A2983 RMK A01 T02740194  RH  062%=      5-min Rain = 0
KST3 201624Z 19008KT 27/19 A2983 RMK A01 T02740191  RH  061%=      5-min Rain = 0
KST3 201625Z 19007KT 27/19 A2983 RMK A01 T02740185  RH  058%=      5-min Rain = 0
KST3 201626Z 20008KT 27/19 A2983 RMK A01 T02740191  RH  061%=      5-min Rain = 0
KST3 201627Z 20006KT 27/19 A2983 RMK A01 T02740190  RH  060%=      5-min Rain = 0
KST3 201628Z 20006KT 27/19 A2983 RMK A01 T02740192  RH  061%=      5-min Rain = 0
KST3 201629Z 20007KT 28/19 A2983 RMK A01 T02760191  RH  060%=      5-min Rain = 0
KST3 201630Z 20009KT 28/19 A2982 RMK A01 T02760189  RH  059%=      5-min Rain = 0
KST3 201631Z 21009KT 28/19 A2982 RMK A01 T02760192  RH  060%=      5-min Rain = 0
KST3 201632Z 22008KT 28/19 A2982 RMK A01 T02770190  RH  059%=      5-min Rain = 0
KST3 201633Z 21008KT 28/19 A2982 RMK A01 T02770192  RH  060%=      5-min Rain = 0
KST3 201634Z 22008KT 28/19 A2982 RMK A01 T02790187  RH  057%=      5-min Rain = 0
KST3 201635Z 21006KT 28/19 A2982 RMK A01 T02790186  RH  057%=      5-min Rain = 0
KST3 201641Z 22008KT 28/19 A2982 RMK A01 T02800191  RH  058%=      5-min Rain = 0
KST3 201642Z 22008KT 28/19 A2982 RMK A01 T02790189  RH  058%=      5-min Rain = 0
KST3 201643Z 22007KT 28/19 A2982 RMK A01 T02790193  RH  059%=      5-min Rain = 0
KST3 201644Z 22009KT 28/19 A2982 RMK A01 T02790192  RH  059%=      5-min Rain = 0
KST3 201645Z 21009KT 28/19 A2982 RMK A01 T02800189  RH  058%=      5-min Rain = 0
KST3 201646Z 21007KT 28/19 A2982 RMK A01 T02800188  RH  057%=      5-min Rain = 0
KST3 201647Z 23006KT 28/19 A2983 RMK A01 T02800191  RH  058%=      5-min Rain = 0
KST3 201648Z 21006KT 28/19 A2983 RMK A01 T02800194  RH  060%=      5-min Rain = 0
KST3 201649Z 21007KT 28/19 A2983 RMK A01 T02800189  RH  057%=      5-min Rain = 0
KST3 201650Z 21006KT 28/19 A2983 RMK A01 T02800192  RH  059%=      5-min Rain = 0
KST3 201651Z 23005KT 28/20 A2983 RMK A01 T02800195  RH  060%=      5-min Rain = 0
KST3 201652Z 22008KT 28/19 A2983 RMK A01 T02810191  RH  058%=      5-min Rain = 0
KST3 201653Z 22005KT 28/19 A2983 RMK A01 T02820188  RH  057%=      5-min Rain = 0
KST3 201654Z 23006KT 28/19 A2983 RMK A01 T02810188  RH  057%=      5-min Rain = 0
KST3 201655Z 23007KT 28/19 A2983 RMK A01 T02820188  RH  057%=      5-min Rain = 0
KST3 201656Z 23007KT 28/19 A2983 RMK A01 T02830192  RH  058%=      5-min Rain = 0
KST3 201657Z 23006KT 29/19 A2983 RMK A01 T02850185  RH  055%=      5-min Rain = 0
KST3 201658Z 25005KT 28/19 A2983 RMK A01 T02840185  RH  055%=      5-min Rain = 0
KST3 201659Z 23006KT 28/19 A2983 RMK A01 T02830192  RH  058%=      5-min Rain = 0
KST3 201700Z 23005KT 29/19 A2982 RMK A01 T02850191  RH  057%=      5-min Rain = 0
KST3 201701Z 23006KT 29/19 A2982 RMK A01 T02870193  RH  057%=      5-min Rain = 0
KST3 201702Z 22008KT 29/19 A2982 RMK A01 T02880188  RH  055%=      5-min Rain = 0
KST3 201703Z 21009KT 29/19 A2982 RMK A01 T02890191  RH  055%=      5-min Rain = 0
KST3 201704Z 22009KT 29/19 A2983 RMK A01 T02900192  RH  056%=      5-min Rain = 0
KST3 201705Z 23006KT 29/20 A2983 RMK A01 T02890196  RH  057%=      5-min Rain = 0
KST3 201706Z 22007KT 29/19 A2983 RMK A01 T02910193  RH  056%=      5-min Rain = 0
KST3 201707Z 22009KT 29/19 A2982 RMK A01 T02910188  RH  054%=      5-min Rain = 0
KST3 201708Z 24006KT 29/19 A2982 RMK A01 T02900190  RH  055%=      5-min Rain = 0
KST3 201709Z 24006KT 29/19 A2983 RMK A01 T02910193  RH  056%=      5-min Rain = 0
KST3 201710Z 24006KT 29/19 A2983 RMK A01 T02910193  RH  056%=      5-min Rain = 0
KST3 201711Z 23005KT 29/20 A2983 RMK A01 T02900196  RH  057%=      5-min Rain = 0
KST3 201712Z 22007KT 29/19 A2983 RMK A01 T02900191  RH  055%=      5-min Rain = 0
KST3 201713Z 21006KT 29/19 A2983 RMK A01 T02910187  RH  054%=      5-min Rain = 0
KST3 201714Z 20005KT 29/19 A2983 RMK A01 T02900192  RH  055%=      5-min Rain = 0
KST3 201715Z 19005KT 29/19 A2983 RMK A01 T02910189  RH  054%=      5-min Rain = 0
KST3 201716Z 20003KT 29/19 A2983 RMK A01 T02920193  RH  055%=      5-min Rain = 0
KST3 201717Z 21004KT 29/19 A2982 RMK A01 T02940192  RH  054%=      5-min Rain = 0
KST3 201718Z 23004KT 30/19 A2982 RMK A01 T02950190  RH  053%=      5-min Rain = 0
KST3 201719Z 24006KT 29/19 A2982 RMK A01 T02940190  RH  054%=      5-min Rain = 0
KST3 201720Z 22005KT 29/19 A2982 RMK A01 T02940191  RH  054%=      5-min Rain = 0
KST3 201721Z 22006KT 30/19 A2982 RMK A01 T02970190  RH  053%=      5-min Rain = 0
KST3 201722Z 23007KT 30/19 A2982 RMK A01 T02980186  RH  051%=      5-min Rain = 0
KST3 201723Z 24008KT 30/19 A2982 RMK A01 T02970189  RH  052%=      5-min Rain = 0
KST3 201724Z 25009KT 30/18 A2982 RMK A01 T02970183  RH  051%=      5-min Rain = 0
KST3 201725Z 24007KT 30/19 A2982 RMK A01 T02970186  RH  051%=      5-min Rain = 0
KST3 201726Z 23006KT 30/19 A2982 RMK A01 T02980187  RH  051%=      5-min Rain = 0
KST3 201727Z 20005KT 30/19 A2982 RMK A01 T02980190  RH  052%=      5-min Rain = 0
KST3 201728Z 21006KT 30/19 A2982 RMK A01 T02980188  RH  052%=      5-min Rain = 0
KST3 201729Z 22007KT 30/19 A2982 RMK A01 T02980190  RH  052%=      5-min Rain = 0
KST3 201730Z 22006KT 30/19 A2982 RMK A01 T02980186  RH  051%=      5-min Rain = 0
KST3 201731Z 21005KT 30/19 A2982 RMK A01 T02970192  RH  053%=      5-min Rain = 0
KST3 201732Z 24004KT 30/19 A2982 RMK A01 T02970186  RH  051%=      5-min Rain = 0
KST3 201733Z 27003KT 30/19 A2982 RMK A01 T02980187  RH  051%=      5-min Rain = 0
KST3 201734Z 27002KT 30/20 A2982 RMK A01 T02980195  RH  054%=      5-min Rain = 0
KST3 201735Z 23005KT 30/20 A2982 RMK A01 T03000198  RH  054%=      5-min Rain = 0
KST3 201736Z 22004KT 30/19 A2982 RMK A01 T03020191  RH  051%=      5-min Rain = 0
KST3 201737Z 22004KT 30/20 A2982 RMK A01 T03030196  RH  053%=      5-min Rain = 0
KST3 201738Z 25004KT 30/19 A2982 RMK A01 T03040193  RH  052%=      5-min Rain = 0
KST3 201739Z 23004KT 30/19 A2982 RMK A01 T03040188  RH  050%=      5-min Rain = 0
KST3 201740Z 24003KT 30/20 A2982 RMK A01 T03040197  RH  053%=      5-min Rain = 0
KST3 201741Z 23005KT 31/20 A2982 RMK A01 T03050195  RH  052%=      5-min Rain = 0
KST3 201742Z 24007KT 31/19 A2982 RMK A01 T03070186  RH  049%=      5-min Rain = 0
KST3 201743Z 25006KT 31/18 A2982 RMK A01 T03080179  RH  046%=      5-min Rain = 0
KST3 201744Z 24005KT 31/19 A2982 RMK A01 T03070190  RH  049%=      5-min Rain = 0
KST3 201745Z 23006KT 31/18 A2982 RMK A01 T03080179  RH  046%=      5-min Rain = 0
KST3 201746Z 22006KT 31/18 A2982 RMK A01 T03080176  RH  045%=      5-min Rain = 0
KST3 201747Z 23007KT 31/19 A2982 RMK A01 T03080187  RH  049%=      5-min Rain = 0
KST3 201748Z 22005KT 31/18 A2982 RMK A01 T03080184  RH  048%=      5-min Rain = 0
KST3 201749Z 21006KT 31/19 A2982 RMK A01 T03080187  RH  048%=      5-min Rain = 0
KST3 201750Z 22007KT 31/19 A2982 RMK A01 T03100185  RH  047%=      5-min Rain = 0
KST3 201751Z 22005KT 31/19 A2982 RMK A01 T03110190  RH  049%=      5-min Rain = 0
KST3 201752Z 20006KT 31/19 A2982 RMK A01 T03120186  RH  047%=      5-min Rain = 0
KST3 201753Z 21007KT 31/19 A2982 RMK A01 T03120187  RH  047%=      5-min Rain = 0
KST3 201754Z 20005KT 31/19 A2982 RMK A01 T03120185  RH  047%=      5-min Rain = 0
KST3 201755Z 21007KT 31/19 A2982 RMK A01 T03120192  RH  049%=      5-min Rain = 0
KST3 201756Z 22005KT 31/18 A2982 RMK A01 T03130175  RH  044%=      5-min Rain = 0
KST3 201757Z 23007KT 31/19 A2982 RMK A01 T03130185  RH  047%=      5-min Rain = 0
KST3 201758Z 26006KT 31/18 A2982 RMK A01 T03130178  RH  045%=      5-min Rain = 0
KST3 201759Z 24005KT 31/19 A2982 RMK A01 T03130188  RH  047%=      5-min Rain = 0
KST3 201800Z 23008KT 31/18 A2982 RMK A01 T03140179  RH  045%=      5-min Rain = 0
KST3 201801Z 23006KT 31/18 A2982 RMK A01 T03130178  RH  044%=      5-min Rain = 0
KST3 201802Z 22006KT 31/19 A2982 RMK A01 T03130187  RH  047%=      5-min Rain = 0
KST3 201803Z 25007KT 32/19 A2982 RMK A01 T03150187  RH  047%=      5-min Rain = 0
KST3 201804Z 24007KT 32/19 A2982 RMK A01 T03160190  RH  047%=      5-min Rain = 0
KST3 201805Z 25005KT 32/19 A2982 RMK A01 T03170188  RH  046%=      5-min Rain = 0
KST3 201806Z 24008KT 32/19 A2982 RMK A01 T03170186  RH  046%=      5-min Rain = 0
KST3 201807Z 24007KT 32/18 A2981 RMK A01 T03180184  RH  045%=      5-min Rain = 0
KST3 201808Z 25008KT 32/18 A2982 RMK A01 T03190184  RH  045%=      5-min Rain = 0
KST3 201809Z 25008KT 32/18 A2981 RMK A01 T03180181  RH  044%=      5-min Rain = 0
KST3 201810Z 24008KT 32/18 A2981 RMK A01 T03170182  RH  045%=      5-min Rain = 0
KST3 201811Z 25007KT 32/18 A2981 RMK A01 T03170178  RH  043%=      5-min Rain = 0
KST3 201812Z 24009KT 32/18 A2981 RMK A01 T03170179  RH  044%=      5-min Rain = 0
KST3 201813Z 26006KT 32/18 A2981 RMK A01 T03180176  RH  043%=      5-min Rain = 0
KST3 201814Z 26005KT 32/18 A2981 RMK A01 T03190181  RH  044%=      5-min Rain = 0
KST3 201815Z 25005KT 32/19 A2981 RMK A01 T03190189  RH  046%=      5-min Rain = 0
KST3 201816Z 23006KT 32/18 A2981 RMK A01 T03200181  RH  044%=      5-min Rain = 0
KST3 201817Z 24008KT 32/18 A2981 RMK A01 T03210179  RH  043%=      5-min Rain = 0
KST3 201818Z 23008KT 32/18 A2981 RMK A01 T03210177  RH  042%=      5-min Rain = 0
KST3 201819Z 24008KT 32/17 A2981 RMK A01 T03210173  RH  041%=      5-min Rain = 0
KST3 201820Z 24008KT 32/18 A2981 RMK A01 T03210184  RH  044%=      5-min Rain = 0
KST3 201821Z 23008KT 32/18 A2981 RMK A01 T03230181  RH  043%=      5-min Rain = 0
KST3 201822Z 24007KT 32/17 A2981 RMK A01 T03240171  RH  040%=      5-min Rain = 0
KST3 201823Z 24006KT 32/18 A2981 RMK A01 T03240176  RH  041%=      5-min Rain = 0
KST3 201824Z 23008KT 33/19 A2981 RMK A01 T03250192  RH  045%=      5-min Rain = 0
KST3 201825Z 23008KT 33/18 A2981 RMK A01 T03280181  RH  042%=      5-min Rain = 0
KST3 201826Z 23009KT 33/18 A2981 RMK A01 T03280181  RH  042%=      5-min Rain = 0
KST3 201827Z 24007KT 33/17 A2981 RMK A01 T03270172  RH  040%=      5-min Rain = 0
KST3 201828Z 26007KT 33/18 A2981 RMK A01 T03270177  RH  041%=      5-min Rain = 0
KST3 201829Z 25006KT 33/18 A2981 RMK A01 T03260178  RH  041%=      5-min Rain = 0
KST3 201830Z 23007KT 33/18 A2981 RMK A01 T03260182  RH  042%=      5-min Rain = 0
KST3 201831Z 23007KT 33/18 A2981 RMK A01 T03280180  RH  042%=      5-min Rain = 0
KST3 201832Z 22008KT 33/17 A2981 RMK A01 T03290173  RH  039%=      5-min Rain = 0
KST3 201833Z 21006KT 33/17 A2981 RMK A01 T03300166  RH  038%=      5-min Rain = 0
KST3 201834Z 22006KT 33/17 A2981 RMK A01 T03290170  RH  039%=      5-min Rain = 0
KST3 201835Z 24006KT 33/17 A2981 RMK A01 T03280166  RH  038%=      5-min Rain = 0
KST3 201836Z 24006KT 33/16 A2981 RMK A01 T03280164  RH  037%=      5-min Rain = 0
KST3 201837Z 24004KT 33/16 A2981 RMK A01 T03280164  RH  037%=      5-min Rain = 0
KST3 201838Z 21004KT 33/16 A2981 RMK A01 T03280161  RH  037%=      5-min Rain = 0
KST3 201839Z 20006KT 33/16 A2981 RMK A01 T03270164  RH  038%=      5-min Rain = 0
KST3 201840Z 21006KT 33/17 A2981 RMK A01 T03280168  RH  038%=      5-min Rain = 0
KST3 201841Z 21004KT 33/17 A2981 RMK A01 T03290172  RH  039%=      5-min Rain = 0
KST3 201842Z 23001KT 33/16 A2981 RMK A01 T03300162  RH  037%=      5-min Rain = 0
KST3 201843Z 18003KT 33/16 A2981 RMK A01 T03300157  RH  035%=      5-min Rain = 0
KST3 201844Z 20006KT 33/17 A2981 RMK A01 T03310173  RH  039%=      5-min Rain = 0
KST3 201845Z 21006KT 33/17 A2981 RMK A01 T03320170  RH  038%=      5-min Rain = 0
KST3 201846Z 24004KT 33/17 A2981 RMK A01 T03320174  RH  039%=      5-min Rain = 0
KST3 201847Z 22002KT 33/18 A2981 RMK A01 T03320176  RH  040%=      5-min Rain = 0
KST3 201848Z 22004KT 33/17 A2981 RMK A01 T03330174  RH  039%=      5-min Rain = 0
KST3 201849Z 23009KT 33/17 A2981 RMK A01 T03340172  RH  038%=      5-min Rain = 0
KST3 201850Z 22008KT 34/15 A2981 RMK A01 T03350147  RH  032%=      5-min Rain = 0
KST3 201851Z 22009KT 34/15 A2981 RMK A01 T03360151  RH  033%=      5-min Rain = 0
KST3 201852Z 22006KT 34/16 A2981 RMK A01 T03350157  RH  034%=      5-min Rain = 0
KST3 201853Z 23004KT 34/15 A2981 RMK A01 T03360153  RH  033%=      5-min Rain = 0
KST3 201854Z 22005KT 34/15 A298 RMK A01 T03360152  RH  033%=      5-min Rain = 0
KST3 201855Z 23005KT 34/16 A298 RMK A01 T03350155  RH  034%=      5-min Rain = 0
KST3 201856Z 24004KT 33/15 A298 RMK A01 T03340153  RH  034%=      5-min Rain = 0
KST3 201857Z 23004KT 34/16 A298 RMK A01 T03350161  RH  035%=      5-min Rain = 0
KST3 201858Z 24007KT 34/16 A298 RMK A01 T03380159  RH  034%=      5-min Rain = 0
KST3 201859Z 25008KT 34/15 A298 RMK A01 T03380150  RH  032%=      5-min Rain = 0
KST3 201900Z 26007KT 34/14 A298 RMK A01 T03380138  RH  030%=      5-min Rain = 0
KST3 201901Z 26006KT 34/15 A298 RMK A01 T03370148  RH  032%=      5-min Rain = 0
KST3 201902Z 25006KT 34/14 A298 RMK A01 T03370140  RH  031%=      5-min Rain = 0
KST3 201903Z 23007KT 34/14 A298 RMK A01 T03370138  RH  030%=      5-min Rain = 0
KST3 201904Z 26006KT 34/14 A298 RMK A01 T03380143  RH  031%=      5-min Rain = 0
KST3 201905Z 27006KT 34/14 A298 RMK A01 T03380143  RH  031%=      5-min Rain = 0
KST3 201906Z 28005KT 34/16 A298 RMK A01 T03390156  RH  034%=      5-min Rain = 0
KST3 201907Z 24007KT 34/16 A298 RMK A01 T03380159  RH  034%=      5-min Rain = 0
KST3 201908Z 21008KT 34/17 A298 RMK A01 T03390167  RH  036%=      5-min Rain = 0
KST3 201909Z 22007KT 34/16 A298 RMK A01 T03380164  RH  035%=      5-min Rain = 0
KST3 201910Z 21007KT 34/17 A298 RMK A01 T03380166  RH  036%=      5-min Rain = 0
KST3 201911Z 22004KT 34/15 A298 RMK A01 T03380153  RH  033%=      5-min Rain = 0
KST3 201912Z 20005KT 34/16 A298 RMK A01 T03370157  RH  034%=      5-min Rain = 0
KST3 201913Z 20005KT 34/15 A298 RMK A01 T03370148  RH  032%=      5-min Rain = 0
KST3 201914Z 23002KT 34/15 A298 RMK A01 T03370150  RH  033%=      5-min Rain = 0
KST3 201915Z 23001KT 34/15 A298 RMK A01 T03370149  RH  032%=      5-min Rain = 0
KST3 201916Z 26001KT 34/15 A298 RMK A01 T03370152  RH  033%=      5-min Rain = 0
KST3 201917Z 28003KT 34/15 A298 RMK A01 T03390148  RH  032%=      5-min Rain = 0
KST3 201918Z 23006KT 34/16 A298 RMK A01 T03400160  RH  034%=      5-min Rain = 0
KST3 201919Z 21009KT 34/15 A298 RMK A01 T03430151  RH  032%=      5-min Rain = 0
KST3 201920Z 21005KT 34/15 A298 RMK A01 T03440146  RH  030%=      5-min Rain = 0
KST3 201921Z 22007KT 35/14 A298 RMK A01 T03450142  RH  030%=      5-min Rain = 0
KST3 201922Z 23006KT 34/15 A298 RMK A01 T03440147  RH  031%=      5-min Rain = 0
KST3 201923Z 23007KT 34/15 A298 RMK A01 T03440146  RH  031%=      5-min Rain = 0
KST3 201924Z 22006KT 34/14 A298 RMK A01 T03430137  RH  029%=      5-min Rain = 0
KST3 201925Z 22005KT 34/14 A298 RMK A01 T03420140  RH  030%=      5-min Rain = 0
KST3 201926Z 21006KT 34/14 A298 RMK A01 T03430141  RH  030%=      5-min Rain = 0
KST3 201927Z 20005KT 34/14 A298 RMK A01 T03430144  RH  030%=      5-min Rain = 0
KST3 201928Z 18004KT 34/14 A298 RMK A01 T03420140  RH  030%=      5-min Rain = 0
KST3 201929Z 24004KT 34/15 A298 RMK A01 T03420151  RH  032%=      5-min Rain = 0
KST3 201930Z 23004G10KT 34/16 A298 RMK A01 T03430156  RH  033%=      5-min Rain = 0
KST3 201931Z 24008KT 34/15 A298 RMK A01 T03440145  RH  030%=      5-min Rain = 0
KST3 201932Z 23005KT 35/13 A298 RMK A01 T03460130  RH  027%=      5-min Rain = 0
KST3 201933Z 22007KT 35/13 A298 RMK A01 T03460133  RH  028%=      5-min Rain = 0
KST3 201934Z 22008KT 35/14 A298 RMK A01 T03460139  RH  029%=      5-min Rain = 0
KST3 201935Z 20008KT 35/14 A298 RMK A01 T03460143  RH  030%=      5-min Rain = 0
KST3 201936Z 20009KT 35/13 A298 RMK A01 T03450134  RH  028%=      5-min Rain = 0
KST3 201937Z 20010KT 35/14 A298 RMK A01 T03450143  RH  030%=      5-min Rain = 0
KST3 201938Z 21008KT 34/14 A298 RMK A01 T03440142  RH  030%=      5-min Rain = 0
KST3 201939Z 21009KT 34/15 A298 RMK A01 T03430152  RH  032%=      5-min Rain = 0
KST3 201940Z 22009KT 34/15 A298 RMK A01 T03430151  RH  032%=      5-min Rain = 0
KST3 201941Z 20010KT 34/15 A298 RMK A01 T03430154  RH  032%=      5-min Rain = 0
KST3 201942Z 20008KT 34/14 A298 RMK A01 T03420144  RH  030%=      5-min Rain = 0
KST3 201943Z 21007KT 34/14 A298 RMK A01 T03410143  RH  030%=      5-min Rain = 0
KST3 201944Z 18004KT 34/14 A298 RMK A01 T03410143  RH  031%=      5-min Rain = 0
KST3 201945Z 20004KT 34/15 A298 RMK A01 T03420150  RH  032%=      5-min Rain = 0
KST3 201946Z 20005KT 34/15 A298 RMK A01 T03440150  RH  031%=      5-min Rain = 0
KST3 201947Z 20005KT 35/15 A298 RMK A01 T03450150  RH  031%=      5-min Rain = 0
KST3 201948Z 20005KT 35/16 A2979 RMK A01 T03450156  RH  033%=      5-min Rain = 0
KST3 201949Z 19006KT 34/15 A2979 RMK A01 T03440151  RH  032%=      5-min Rain = 0
KST3 201950Z 20006KT 34/16 A2979 RMK A01 T03440155  RH  032%=      5-min Rain = 0
KST3 201951Z 21006KT 34/16 A2979 RMK A01 T03440157  RH  033%=      5-min Rain = 0
KST3 201952Z 22006KT 35/16 A2979 RMK A01 T03450157  RH  033%=      5-min Rain = 0
KST3 201953Z 21009KT 35/15 A2979 RMK A01 T03450147  RH  030%=      5-min Rain = 0
KST3 201954Z 22010KT 35/14 A2979 RMK A01 T03450144  RH  030%=      5-min Rain = 0
KST3 201955Z 22008KT 35/14 A2979 RMK A01 T03460135  RH  028%=      5-min Rain = 0
KST3 201956Z 22008KT 35/14 A2979 RMK A01 T03450135  RH  028%=      5-min Rain = 0
KST3 201957Z 22008KT 34/14 A2979 RMK A01 T03440139  RH  029%=      5-min Rain = 0
KST3 201958Z 22008KT 34/15 A2979 RMK A01 T03430151  RH  032%=      5-min Rain = 0
KST3 201959Z 21008KT 34/16 A2979 RMK A01 T03440155  RH  033%=      5-min Rain = 0
KST3 202000Z 19008KT 35/16 A2979 RMK A01 T03450157  RH  033%=      5-min Rain = 0
KST3 202001Z 21010KT 35/16 A2979 RMK A01 T03460159  RH  033%=      5-min Rain = 0
KST3 202002Z 19009KT 35/16 A2979 RMK A01 T03470157  RH  032%=      5-min Rain = 0
KST3 202003Z 19008KT 35/15 A2979 RMK A01 T03480151  RH  031%=      5-min Rain = 0
KST3 202004Z 20008KT 35/15 A2979 RMK A01 T03480148  RH  030%=      5-min Rain = 0
KST3 202005Z 20009KT 35/15 A2979 RMK A01 T03480150  RH  031%=      5-min Rain = 0
KST3 202006Z 22008KT 35/15 A2979 RMK A01 T03470153  RH  031%=      5-min Rain = 0
KST3 202007Z 22006KT 35/15 A2979 RMK A01 T03460146  RH  030%=      5-min Rain = 0
KST3 202008Z 22009KT 35/15 A2979 RMK A01 T03450149  RH  031%=      5-min Rain = 0
KST3 202009Z 22009KT 35/14 A2979 RMK A01 T03460144  RH  030%=      5-min Rain = 0
KST3 202010Z 23009KT 35/14 A2979 RMK A01 T03460136  RH  028%=      5-min Rain = 0
KST3 202011Z 23010KT 35/14 A2979 RMK A01 T03460139  RH  029%=      5-min Rain = 0
KST3 202012Z 23011KT 35/14 A2979 RMK A01 T03460139  RH  029%=      5-min Rain = 0
KST3 202013Z 24008KT 35/13 A2979 RMK A01 T03470132  RH  027%=      5-min Rain = 0
KST3 202014Z 23010KT 35/14 A2979 RMK A01 T03480142  RH  029%=      5-min Rain = 0
KST3 202015Z 22010KT 35/14 A2979 RMK A01 T03480141  RH  029%=      5-min Rain = 0
KST3 202016Z 22007KT 35/13 A2979 RMK A01 T03480133  RH  027%=      5-min Rain = 0
KST3 202017Z 21009KT 35/14 A2979 RMK A01 T03480139  RH  029%=      5-min Rain = 0
KST3 202018Z 21008KT 35/13 A2979 RMK A01 T03480131  RH  027%=      5-min Rain = 0
KST3 202019Z 20009KT 35/14 A2979 RMK A01 T03480138  RH  028%=      5-min Rain = 0
KST3 202020Z 19009KT 35/13 A2979 RMK A01 T03490125  RH  026%=      5-min Rain = 0
KST3 202021Z 21010KT 35/13 A2979 RMK A01 T03500134  RH  027%=      5-min Rain = 0
KST3 202022Z 21012KT 35/13 A2978 RMK A01 T03490129  RH  027%=      5-min Rain = 0
KST3 202023Z 21011KT 35/14 A2979 RMK A01 T03490136  RH  028%=      5-min Rain = 0
KST3 202024Z 21011KT 35/14 A2978 RMK A01 T03490137  RH  028%=      5-min Rain = 0
KST3 202025Z 21011KT 35/14 A2978 RMK A01 T03490137  RH  028%=      5-min Rain = 0
KST3 202026Z 20010KT 35/13 A2978 RMK A01 T03500129  RH  026%=      5-min Rain = 0
KST3 202027Z 21009KT 35/12 A2978 RMK A01 T03510122  RH  025%=      5-min Rain = 0
KST3 202028Z 21011KT 35/12 A2978 RMK A01 T03500124  RH  026%=      5-min Rain = 0
KST3 202029Z 20012KT 35/11 A2978 RMK A01 T03500113  RH  024%=      5-min Rain = 0
KST3 202030Z 20012KT 35/12 A2978 RMK A01 T03490121  RH  025%=      5-min Rain = 0
KST3 202031Z 20011KT 35/11 A2978 RMK A01 T03500113  RH  024%=      5-min Rain = 0
KST3 202032Z 22011KT 35/12 A2978 RMK A01 T03500121  RH  025%=      5-min Rain = 0
KST3 202033Z 22010KT 35/12 A2978 RMK A01 T03490119  RH  025%=      5-min Rain = 0
KST3 202034Z 23011KT 35/11 A2978 RMK A01 T03490111  RH  024%=      5-min Rain = 0
KST3 202035Z 24010KT 35/11 A2978 RMK A01 T03490112  RH  024%=      5-min Rain = 0
KST3 202036Z 22011KT 35/12 A2978 RMK A01 T03490124  RH  026%=      5-min Rain = 0
KST3 202037Z 22011KT 35/12 A2978 RMK A01 T03510117  RH  024%=      5-min Rain = 0
KST3 202038Z 22012KT 35/11 A2978 RMK A01 T03510111  RH  023%=      5-min Rain = 0
KST3 202039Z 21011KT 35/11 A2978 RMK A01 T03500107  RH  023%=      5-min Rain = 0
KST3 202040Z 21008KT 35/13 A2978 RMK A01 T03490125  RH  026%=      5-min Rain = 0
KST3 202041Z 20008KT 35/12 A2978 RMK A01 T03510118  RH  024%=      5-min Rain = 0
KST3 202042Z 20009KT 35/10 A2978 RMK A01 T03520102  RH  022%=      5-min Rain = 0
KST3 202043Z 20012KT 35/11 A2978 RMK A01 T03520109  RH  023%=      5-min Rain = 0
KST3 202044Z 20013KT 35/11 A2978 RMK A01 T03520114  RH  024%=      5-min Rain = 0
KST3 202045Z 20010KT 35/11 A2978 RMK A01 T03520106  RH  023%=      5-min Rain = 0
KST3 202046Z 21010G16KT 35/12 A2978 RMK A01 T03510123  RH  025%=      5-min Rain = 0
KST3 202047Z 22014KT 35/11 A2978 RMK A01 T03510106  RH  023%=      5-min Rain = 0
KST3 202048Z 22011KT 35/10 A2978 RMK A01 T03520099  RH  022%=      5-min Rain = 0
KST3 202049Z 21008G13KT 35/12 A2978 RMK A01 T03520123  RH  025%=      5-min Rain = 0
KST3 202050Z 21010KT 35/10 A2978 RMK A01 T03520104  RH  022%=      5-min Rain = 0
KST3 202051Z 21010KT 35/10 A2978 RMK A01 T03520095  RH  021%=      5-min Rain = 0
KST3 202052Z 23006KT 35/12 A2978 RMK A01 T03520119  RH  025%=      5-min Rain = 0
KST3 202053Z 22007KT 35/13 A2978 RMK A01 T03530126  RH  025%=      5-min Rain = 0
KST3 202054Z 23009KT 35/12 A2978 RMK A01 T03540115  RH  024%=      5-min Rain = 0
KST3 202055Z 22008KT 35/12 A2978 RMK A01 T03540119  RH  024%=      5-min Rain = 0
KST3 202056Z 21009KT 35/13 A2978 RMK A01 T03540129  RH  026%=      5-min Rain = 0
KST3 202057Z 21010KT 35/13 A2978 RMK A01 T03540129  RH  026%=      5-min Rain = 0
KST3 202058Z 22010KT 35/11 A2978 RMK A01 T03540110  RH  023%=      5-min Rain = 0
KST3 202059Z 22008KT 35/12 A2978 RMK A01 T03520118  RH  024%=      5-min Rain = 0
KST3 202100Z 22007KT 35/11 A2978 RMK A01 T03520107  RH  023%=      5-min Rain = 0
KST3 202101Z 23007KT 35/11 A2977 RMK A01 T03520108  RH  023%=      5-min Rain = 0
KST3 202102Z 22008KT 35/12 A2977 RMK A01 T03530124  RH  025%=      5-min Rain = 0
KST3 202103Z 23009KT 35/11 A2977 RMK A01 T03540105  RH  022%=      5-min Rain = 0
KST3 202104Z 23009KT 35/10 A2977 RMK A01 T03540099  RH  021%=      5-min Rain = 0
KST3 202105Z 23010KT 35/10 A2977 RMK A01 T03540097  RH  021%=      5-min Rain = 0
KST3 202106Z 24008KT 35/09 A2977 RMK A01 T03540088  RH  020%=      5-min Rain = 0
KST3 202107Z 25008KT 35/09 A2977 RMK A01 T03540094  RH  021%=      5-min Rain = 0
KST3 202108Z 24008KT 35/08 A2977 RMK A01 T03530081  RH  019%=      5-min Rain = 0
KST3 202109Z 25008KT 35/09 A2977 RMK A01 T03530089  RH  020%=      5-min Rain = 0
KST3 202110Z 24008KT 35/09 A2977 RMK A01 T03540087  RH  020%=      5-min Rain = 0
KST3 202111Z 24007KT 35/10 A2977 RMK A01 T03530099  RH  021%=      5-min Rain = 0
KST3 202112Z 24007KT 35/09 A2977 RMK A01 T03540085  RH  019%=      5-min Rain = 0
KST3 202113Z 23005KT 35/09 A2977 RMK A01 T03540088  RH  020%=      5-min Rain = 0
KST3 202114Z 22007KT 35/10 A2976 RMK A01 T03540098  RH  021%=      5-min Rain = 0
KST3 202115Z 23008KT 36/09 A2976 RMK A01 T03550087  RH  019%=      5-min Rain = 0
KST3 202116Z 24006KT 36/10 A2976 RMK A01 T03550099  RH  021%=      5-min Rain = 0
KST3 202117Z 24007KT 36/10 A2976 RMK A01 T03550104  RH  022%=      5-min Rain = 0
KST3 202118Z 25006KT 35/10 A2976 RMK A01 T03540097  RH  021%=      5-min Rain = 0
KST3 202119Z 24006KT 36/11 A2976 RMK A01 T03550107  RH  022%=      5-min Rain = 0
KST3 202120Z 24008KT 36/11 A2976 RMK A01 T03550114  RH  023%=      5-min Rain = 0
KST3 202121Z 24008KT 36/12 A2976 RMK A01 T03560118  RH  024%=      5-min Rain = 0
KST3 202122Z 24009KT 36/12 A2976 RMK A01 T03560116  RH  023%=      5-min Rain = 0
KST3 202123Z 23009KT 36/11 A2976 RMK A01 T03560111  RH  023%=      5-min Rain = 0
KST3 202124Z 23011KT 36/10 A2976 RMK A01 T03570103  RH  021%=      5-min Rain = 0
KST3 202125Z 24011KT 36/09 A2976 RMK A01 T03560091  RH  020%=      5-min Rain = 0
KST3 202126Z 24012KT 36/10 A2976 RMK A01 T03550097  RH  021%=      5-min Rain = 0
KST3 202127Z 24009KT 35/10 A2976 RMK A01 T03540102  RH  022%=      5-min Rain = 0
KST3 202128Z 24009KT 35/10 A2976 RMK A01 T03540104  RH  022%=      5-min Rain = 0
KST3 202129Z 24008KT 35/10 A2976 RMK A01 T03540103  RH  022%=      5-min Rain = 0
KST3 202130Z 24009KT 36/10 A2976 RMK A01 T03550096  RH  021%=      5-min Rain = 0
KST3 202131Z 24009KT 36/10 A2976 RMK A01 T03550101  RH  021%=      5-min Rain = 0
KST3 202132Z 23009KT 36/10 A2975 RMK A01 T03550096  RH  021%=      5-min Rain = 0
KST3 202133Z 22009KT 36/09 A2975 RMK A01 T03550094  RH  020%=      5-min Rain = 0
KST3 202134Z 23009KT 36/09 A2975 RMK A01 T03550088  RH  020%=      5-min Rain = 0
KST3 202135Z 23008KT 35/08 A2975 RMK A01 T03540081  RH  019%=      5-min Rain = 0
KST3 202136Z 22006KT 35/07 A2975 RMK A01 T03540070  RH  017%=      5-min Rain = 0
KST3 202137Z 22005KT 35/09 A2975 RMK A01 T03540087  RH  020%=      5-min Rain = 0
KST3 202138Z 22006KT 36/11 A2975 RMK A01 T03550109  RH  023%=      5-min Rain = 0
KST3 202139Z 23006KT 36/09 A2975 RMK A01 T03560091  RH  020%=      5-min Rain = 0
KST3 202140Z 22006KT 36/09 A2975 RMK A01 T03560085  RH  019%=      5-min Rain = 0
KST3 202141Z 23005KT 36/10 A2975 RMK A01 T03560101  RH  021%=      5-min Rain = 0
KST3 202142Z 24006KT 36/11 A2975 RMK A01 T03570106  RH  022%=      5-min Rain = 0
KST3 202143Z 24006KT 36/11 A2975 RMK A01 T03580105  RH  022%=      5-min Rain = 0
KST3 202144Z 24007KT 36/11 A2975 RMK A01 T03570113  RH  023%=      5-min Rain = 0
KST3 202145Z 24007KT 36/12 A2975 RMK A01 T03580118  RH  024%=      5-min Rain = 0
KST3 202146Z 24008KT 36/10 A2975 RMK A01 T03590098  RH  021%=      5-min Rain = 0
KST3 202147Z 24008KT 36/08 A2975 RMK A01 T03580078  RH  018%=      5-min Rain = 0
KST3 202148Z 24006KT 36/08 A2975 RMK A01 T03560077  RH  018%=      5-min Rain = 0
KST3 202149Z 24005KT 36/08 A2975 RMK A01 T03560083  RH  019%=      5-min Rain = 0
KST3 202150Z 23004KT 36/07 A2975 RMK A01 T03560072  RH  018%=      5-min Rain = 0
KST3 202151Z 24005KT 36/08 A2975 RMK A01 T03560078  RH  018%=      5-min Rain = 0
KST3 202152Z 25007KT 36/09 A2975 RMK A01 T03560088  RH  020%=      5-min Rain = 0
KST3 202153Z 24007KT 36/09 A2975 RMK A01 T03570087  RH  019%=      5-min Rain = 0
KST3 202154Z 23007KT 36/07 A2975 RMK A01 T03570074  RH  018%=      5-min Rain = 0
KST3 202155Z 22004KT 36/07 A2975 RMK A01 T03570065  RH  017%=      5-min Rain = 0
KST3 202156Z 19005KT 36/08 A2975 RMK A01 T03560084  RH  019%=      5-min Rain = 0
KST3 202157Z 21006KT 36/08 A2975 RMK A01 T03570080  RH  018%=      5-min Rain = 0
KST3 202158Z 22005KT 36/08 A2975 RMK A01 T03570080  RH  018%=      5-min Rain = 0
KST3 202159Z 20005KT 36/08 A2975 RMK A01 T03580083  RH  019%=      5-min Rain = 0
KST3 202200Z 21006KT 36/10 A2975 RMK A01 T03580101  RH  021%=      5-min Rain = 0
KST3 202201Z 21007KT 36/10 A2975 RMK A01 T03580099  RH  021%=      5-min Rain = 0
KST3 202202Z 20006KT 36/10 A2975 RMK A01 T03580095  RH  020%=      5-min Rain = 0
KST3 202203Z 19006KT 36/08 A2975 RMK A01 T03580082  RH  019%=      5-min Rain = 0
KST3 202204Z 20006KT 36/07 A2975 RMK A01 T03580071  RH  017%=      5-min Rain = 0
KST3 202205Z 20005KT 36/09 A2975 RMK A01 T03570088  RH  019%=      5-min Rain = 0
KST3 202206Z 22005KT 36/08 A2975 RMK A01 T03570081  RH  018%=      5-min Rain = 0
KST3 202207Z 24003KT 36/07 A2975 RMK A01 T03570067  RH  017%=      5-min Rain = 0
KST3 202208Z 23003KT 36/08 A2975 RMK A01 T03570078  RH  018%=      5-min Rain = 0
KST3 202209Z 24001KT 36/06 A2975 RMK A01 T03580060  RH  016%=      5-min Rain = 0
KST3 202210Z 23002KT 36/10 A2975 RMK A01 T03590098  RH  021%=      5-min Rain = 0
KST3 202211Z 22002KT 36/09 A2975 RMK A01 T03610091  RH  019%=      5-min Rain = 0
KST3 202212Z 24006KT 36/10 A2975 RMK A01 T03610102  RH  021%=      5-min Rain = 0
KST3 202213Z 24005KT 36/09 A2975 RMK A01 T03610090  RH  019%=      5-min Rain = 0
KST3 202214Z 24004KT 36/11 A2975 RMK A01 T03600107  RH  022%=      5-min Rain = 0
KST3 202215Z 23004KT 36/08 A2975 RMK A01 T03600078  RH  018%=      5-min Rain = 0
KST3 202216Z 23003KT 36/07 A2975 RMK A01 T03590067  RH  017%=      5-min Rain = 0
KST3 202217Z 23003KT 36/08 A2975 RMK A01 T03590079  RH  018%=      5-min Rain = 0
KST3 202218Z 23003KT 36/08 A2975 RMK A01 T03580078  RH  018%=      5-min Rain = 0
KST3 202219Z 23002KT 36/08 A2975 RMK A01 T03590075  RH  018%=      5-min Rain = 0
KST3 202220Z 23002KT 36/09 A2975 RMK A01 T03590085  RH  019%=      5-min Rain = 0
KST3 202221Z 24002KT 36/08 A2975 RMK A01 T03600081  RH  018%=      5-min Rain = 0
KST3 202222Z 19004KT 36/09 A2975 RMK A01 T03610086  RH  019%=      5-min Rain = 0
KST3 202223Z 20003KT 36/08 A2975 RMK A01 T03610079  RH  018%=      5-min Rain = 0
KST3 202224Z 19003KT 36/07 A2975 RMK A01 T03610074  RH  017%=      5-min Rain = 0
KST3 202225Z 17002KT 36/08 A2975 RMK A01 T03600077  RH  018%=      5-min Rain = 0
KST3 202226Z 18004KT 36/10 A2975 RMK A01 T03610096  RH  020%=      5-min Rain = 0
KST3 202227Z 19006KT 36/09 A2975 RMK A01 T03620091  RH  019%=      5-min Rain = 0
KST3 202228Z 21006KT 36/09 A2975 RMK A01 T03620093  RH  019%=      5-min Rain = 0
KST3 202229Z 21004KT 36/07 A2975 RMK A01 T03610074  RH  017%=      5-min Rain = 0
KST3 202230Z 21004KT 36/08 A2975 RMK A01 T03600075  RH  018%=      5-min Rain = 0
KST3 202231Z 21004KT 36/07 A2975 RMK A01 T03590067  RH  017%=      5-min Rain = 0
KST3 202232Z 22004KT 36/09 A2975 RMK A01 T03590088  RH  019%=      5-min Rain = 0
KST3 202233Z 23005KT 36/08 A2975 RMK A01 T03590077  RH  018%=      5-min Rain = 0
KST3 202234Z 23004KT 36/09 A2975 RMK A01 T03590092  RH  020%=      5-min Rain = 0
KST3 202235Z 23005KT 36/10 A2975 RMK A01 T03590100  RH  021%=      5-min Rain = 0
KST3 202236Z 22006KT 36/10 A2975 RMK A01 T03590098  RH  020%=      5-min Rain = 0
KST3 202237Z 20007KT 36/10 A2975 RMK A01 T03590102  RH  021%=      5-min Rain = 0
KST3 202238Z 18006KT 36/10 A2975 RMK A01 T03580098  RH  021%=      5-min Rain = 0
KST3 202239Z 18006KT 36/08 A2975 RMK A01 T03580084  RH  019%=      5-min Rain = 0
KST3 202240Z 18008KT 36/09 A2975 RMK A01 T03580090  RH  019%=      5-min Rain = 0
KST3 202241Z 18007KT 36/08 A2975 RMK A01 T03580083  RH  019%=      5-min Rain = 0
KST3 202242Z 18006KT 36/09 A2975 RMK A01 T03580094  RH  020%=      5-min Rain = 0
KST3 202243Z 17006KT 36/09 A2975 RMK A01 T03590089  RH  019%=      5-min Rain = 0
KST3 202244Z 16006KT 36/09 A2975 RMK A01 T03590093  RH  020%=      5-min Rain = 0
KST3 202245Z 17006KT 36/10 A2975 RMK A01 T03590098  RH  021%=      5-min Rain = 0
KST3 202246Z 17005KT 36/09 A2975 RMK A01 T03590090  RH  019%=      5-min Rain = 0
KST3 202247Z 16006KT 36/09 A2975 RMK A01 T03590093  RH  020%=      5-min Rain = 0
KST3 202248Z 14006KT 36/09 A2975 RMK A01 T03580089  RH  019%=      5-min Rain = 0
KST3 202249Z 13004KT 36/08 A2975 RMK A01 T03570082  RH  019%=      5-min Rain = 0
KST3 202250Z 15004KT 36/09 A2974 RMK A01 T03570094  RH  020%=      5-min Rain = 0
KST3 202251Z 15004KT 36/11 A2974 RMK A01 T03570106  RH  022%=      5-min Rain = 0
KST3 202252Z 16005KT 36/09 A2974 RMK A01 T03560088  RH  020%=      5-min Rain = 0
KST3 202253Z 15004KT 36/10 A2974 RMK A01 T03570102  RH  021%=      5-min Rain = 0
KST3 202254Z 14006KT 36/11 A2974 RMK A01 T03560106  RH  022%=      5-min Rain = 0
KST3 202255Z 13007KT 36/09 A2974 RMK A01 T03570088  RH  019%=      5-min Rain = 0
KST3 202256Z 13006KT 36/09 A2974 RMK A01 T03560085  RH  019%=      5-min Rain = 0
KST3 202257Z 13005KT 36/08 A2974 RMK A01 T03560082  RH  019%=      5-min Rain = 0
KST3 202258Z 14005KT 36/10 A2974 RMK A01 T03560100  RH  021%=      5-min Rain = 0
KST3 202259Z 16008KT 36/10 A2974 RMK A01 T03560103  RH  022%=      5-min Rain = 0
KST3 202300Z 15007KT 36/10 A2974 RMK A01 T03560097  RH  021%=      5-min Rain = 0
KST3 202301Z 15006KT 36/11 A2974 RMK A01 T03550109  RH  022%=      5-min Rain = 0
KST3 202302Z 15005KT 36/12 A2974 RMK A01 T03550116  RH  024%=      5-min Rain = 0
KST3 202303Z 14006KT 36/10 A2974 RMK A01 T03560102  RH  021%=      5-min Rain = 0
KST3 202304Z 15008KT 36/09 A2974 RMK A01 T03560093  RH  020%=      5-min Rain = 0
KST3 202305Z 15008KT 36/09 A2974 RMK A01 T03550094  RH  020%=      5-min Rain = 0
KST3 202306Z 16006KT 36/10 A2974 RMK A01 T03550101  RH  021%=      5-min Rain = 0
KST3 202307Z 16007KT 36/10 A2974 RMK A01 T03550100  RH  021%=      5-min Rain = 0
KST3 202308Z 15006KT 36/10 A2974 RMK A01 T03550103  RH  022%=      5-min Rain = 0
KST3 202309Z 14008KT 35/09 A2974 RMK A01 T03540094  RH  020%=      5-min Rain = 0
KST3 202310Z 14008KT 35/09 A2974 RMK A01 T03540093  RH  020%=      5-min Rain = 0
KST3 202311Z 14008KT 35/09 A2974 RMK A01 T03540092  RH  020%=      5-min Rain = 0
KST3 202312Z 15007KT 35/09 A2974 RMK A01 T03530086  RH  019%=      5-min Rain = 0
KST3 202313Z 14006KT 35/10 A2974 RMK A01 T03530095  RH  021%=      5-min Rain = 0
KST3 202314Z 16006KT 35/10 A2974 RMK A01 T03530098  RH  021%=      5-min Rain = 0
KST3 202315Z 15005KT 35/10 A2974 RMK A01 T03540100  RH  021%=      5-min Rain = 0
KST3 202316Z 15006KT 35/10 A2974 RMK A01 T03540097  RH  021%=      5-min Rain = 0
KST3 202317Z 14005KT 35/09 A2974 RMK A01 T03540090  RH  020%=      5-min Rain = 0
KST3 202318Z 12005KT 35/10 A2974 RMK A01 T03540102  RH  022%=      5-min Rain = 0
KST3 202319Z 13005KT 35/09 A2974 RMK A01 T03540092  RH  020%=      5-min Rain = 0
KST3 202320Z 13005KT 35/09 A2974 RMK A01 T03540092  RH  020%=      5-min Rain = 0
KST3 202321Z 13005KT 35/09 A2974 RMK A01 T03540093  RH  020%=      5-min Rain = 0
KST3 202322Z 13006KT 35/10 A2973 RMK A01 T03540099  RH  021%=      5-min Rain = 0
KST3 202323Z 13009KT 35/10 A2973 RMK A01 T03540096  RH  021%=      5-min Rain = 0
KST3 202324Z 15008KT 35/09 A2973 RMK A01 T03540093  RH  020%=      5-min Rain = 0
KST3 202325Z 14007KT 35/10 A2973 RMK A01 T03540096  RH  021%=      5-min Rain = 0
KST3 202326Z 15008KT 35/10 A2973 RMK A01 T03530098  RH  021%=      5-min Rain = 0
KST3 202327Z 15007KT 35/10 A2973 RMK A01 T03530102  RH  022%=      5-min Rain = 0
KST3 202328Z 15009KT 35/10 A2973 RMK A01 T03530096  RH  021%=      5-min Rain = 0
KST3 202329Z 16009KT 35/09 A2973 RMK A01 T03520094  RH  021%=      5-min Rain = 0
KST3 202330Z 15007KT 35/10 A2973 RMK A01 T03520096  RH  021%=      5-min Rain = 0
KST3 202331Z 15009KT 35/09 A2973 RMK A01 T03520093  RH  021%=      5-min Rain = 0
KST3 202332Z 15007KT 35/09 A2973 RMK A01 T03510090  RH  020%=      5-min Rain = 0
KST3 202333Z 15007KT 35/10 A2973 RMK A01 T03510104  RH  022%=      5-min Rain = 0
KST3 202334Z 16006KT 35/11 A2973 RMK A01 T03520105  RH  022%=      5-min Rain = 0
KST3 202335Z 15007KT 35/11 A2973 RMK A01 T03510109  RH  023%=      5-min Rain = 0
KST3 202336Z 16008KT 35/10 A2973 RMK A01 T03510102  RH  022%=      5-min Rain = 0
KST3 202337Z 15007KT 35/10 A2973 RMK A01 T03510102  RH  022%=      5-min Rain = 0
KST3 202338Z 14007KT 35/11 A2973 RMK A01 T03510108  RH  023%=      5-min Rain = 0
KST3 202339Z 14008KT 35/10 A2973 RMK A01 T03500104  RH  022%=      5-min Rain = 0
KST3 202340Z 13009KT 35/12 A2973 RMK A01 T03490120  RH  025%=      5-min Rain = 0
KST3 202341Z 15012KT 35/13 A2973 RMK A01 T03470132  RH  027%=      5-min Rain = 0
KST3 202342Z 14013KT 34/14 A2973 RMK A01 T03430142  RH  030%=      5-min Rain = 0
KST3 202343Z 15011KT 34/15 A2973 RMK A01 T03390147  RH  032%=      5-min Rain = 0
KST3 202344Z 14009KT 34/15 A2973 RMK A01 T03370154  RH  033%=      5-min Rain = 0
KST3 202345Z 14013KT 34/16 A2973 RMK A01 T03360158  RH  034%=      5-min Rain = 0
KST3 202346Z 14012KT 34/16 A2973 RMK A01 T03350156  RH  034%=      5-min Rain = 0
KST3 202347Z 14010G15KT 33/16 A2973 RMK A01 T03340162  RH  036%=      5-min Rain = 0
KST3 202348Z 14013KT 33/17 A2973 RMK A01 T03330166  RH  037%=      5-min Rain = 0
KST3 202349Z 14014KT 33/16 A2973 RMK A01 T03320163  RH  036%=      5-min Rain = 0
KST3 202350Z 14011KT 33/17 A2973 RMK A01 T03310165  RH  037%=      5-min Rain = 0
KST3 202351Z 14011KT 33/17 A2973 RMK A01 T03310166  RH  037%=      5-min Rain = 0
KST3 202352Z 15011KT 33/17 A2973 RMK A01 T03300166  RH  037%=      5-min Rain = 0
KST3 202353Z 15012KT 33/17 A2973 RMK A01 T03300166  RH  037%=      5-min Rain = 0
KST3 202354Z 14011G16KT 33/17 A2973 RMK A01 T03300167  RH  038%=      5-min Rain = 0
KST3 202355Z 14011G16KT 33/17 A2973 RMK A01 T03290165  RH  037%=      5-min Rain = 0
KST3 202356Z 14010KT 33/17 A2973 RMK A01 T03290167  RH  038%=      5-min Rain = 0
KST3 202357Z 14013KT 33/17 A2973 RMK A01 T03280167  RH  038%=      5-min Rain = 0
KST3 202358Z 15011KT 33/17 A2973 RMK A01 T03280170  RH  039%=      5-min Rain = 0
KST3 202359Z 15010KT 33/17 A2973 RMK A01 T03270172  RH  040%=      5-min Rain = 0
KST3 210000Z 15012KT 33/17 A2973 RMK A01 T03270172  RH  040%=      5-min Rain = 0
KST3 210001Z 15014KT 33/17 A2973 RMK A01 T03270167  RH  038%=      5-min Rain = 0
KST3 210002Z 15011KT 33/17 A2973 RMK A01 T03270168  RH  039%=      5-min Rain = 0
KST3 210003Z 15013KT 33/17 A2973 RMK A01 T03270166  RH  038%=      5-min Rain = 0
KST3 210004Z 14012KT 33/16 A2973 RMK A01 T03260162  RH  037%=      5-min Rain = 0
KST3 210005Z 14012KT 33/16 A2973 RMK A01 T03260162  RH  037%=      5-min Rain = 0
KST3 210006Z 14011G16KT 33/17 A2973 RMK A01 T03250165  RH  038%=      5-min Rain = 0
KST3 210007Z 14011KT 33/16 A2973 RMK A01 T03250162  RH  038%=      5-min Rain = 0
KST3 210008Z 14010KT 33/16 A2973 RMK A01 T03250164  RH  038%=      5-min Rain = 0
KST3 210009Z 14011KT 32/17 A2973 RMK A01 T03240166  RH  039%=      5-min Rain = 0
KST3 210010Z 14012G17KT 32/16 A2973 RMK A01 T03240163  RH  038%=      5-min Rain = 0
KST3 210011Z 14011KT 32/16 A2973 RMK A01 T03240163  RH  038%=      5-min Rain = 0
KST3 210012Z 15013KT 32/16 A2973 RMK A01 T03240164  RH  038%=      5-min Rain = 0
KST3 210013Z 14011G16KT 32/16 A2973 RMK A01 T03230164  RH  038%=      5-min Rain = 0
KST3 210014Z 14013KT 32/16 A2973 RMK A01 T03230164  RH  038%=      5-min Rain = 0
KST3 210015Z 14012KT 32/17 A2973 RMK A01 T03220166  RH  039%=      5-min Rain = 0
KST3 210016Z 14012KT 32/17 A2973 RMK A01 T03220165  RH  039%=      5-min Rain = 0
KST3 210017Z 15012KT 32/17 A2972 RMK A01 T03220165  RH  039%=      5-min Rain = 0
KST3 210018Z 14012KT 32/17 A2972 RMK A01 T03220166  RH  039%=      5-min Rain = 0
KST3 210019Z 14011KT 32/16 A2972 RMK A01 T03220164  RH  039%=      5-min Rain = 0
KST3 210020Z 14012G18KT 32/17 A2972 RMK A01 T03210167  RH  039%=      5-min Rain = 0
KST3 210021Z 14013KT 32/16 A2972 RMK A01 T03210164  RH  039%=      5-min Rain = 0
KST3 210022Z 14011G16KT 32/17 A2972 RMK A01 T03210167  RH  040%=      5-min Rain = 0
KST3 210023Z 14014KT 32/16 A2972 RMK A01 T03210164  RH  039%=      5-min Rain = 0
KST3 210024Z 14011KT 32/17 A2972 RMK A01 T03200166  RH  039%=      5-min Rain = 0
KST3 210025Z 14011G16KT 32/17 A2972 RMK A01 T03200167  RH  040%=      5-min Rain = 0
KST3 210026Z 14010KT 32/17 A2972 RMK A01 T03200168  RH  040%=      5-min Rain = 0
KST3 210027Z 14011KT 32/17 A2972 RMK A01 T03190167  RH  040%=      5-min Rain = 0
KST3 210028Z 14011KT 32/17 A2972 RMK A01 T03190168  RH  040%=      5-min Rain = 0
KST3 210029Z 14010KT 32/17 A2972 RMK A01 T03190169  RH  041%=      5-min Rain = 0
KST3 210030Z 13010KT 32/17 A2972 RMK A01 T03180170  RH  041%=      5-min Rain = 0
KST3 210031Z 14010KT 32/17 A2972 RMK A01 T03180171  RH  041%=      5-min Rain = 0
KST3 210032Z 13011KT 32/17 A2972 RMK A01 T03170171  RH  042%=      5-min Rain = 0
KST3 210033Z 13012KT 32/17 A2972 RMK A01 T03170170  RH  041%=      5-min Rain = 0
KST3 210034Z 14011KT 32/17 A2972 RMK A01 T03170171  RH  042%=      5-min Rain = 0
KST3 210035Z 13011KT 32/17 A2972 RMK A01 T03160172  RH  042%=      5-min Rain = 0
KST3 210036Z 13011KT 32/17 A2972 RMK A01 T03160172  RH  042%=      5-min Rain = 0
KST3 210037Z 14011KT 32/17 A2972 RMK A01 T03150172  RH  042%=      5-min Rain = 0
KST3 210038Z 13012KT 32/17 A2972 RMK A01 T03150173  RH  043%=      5-min Rain = 0
KST3 210039Z 14010KT 32/17 A2972 RMK A01 T03150173  RH  043%=      5-min Rain = 0
KST3 210040Z 14011KT 31/17 A2972 RMK A01 T03140173  RH  043%=      5-min Rain = 0
KST3 210041Z 14010KT 31/17 A2972 RMK A01 T03130174  RH  043%=      5-min Rain = 0
KST3 210042Z 14011KT 31/17 A2972 RMK A01 T03130174  RH  043%=      5-min Rain = 0
KST3 210043Z 14010KT 31/17 A2972 RMK A01 T03130174  RH  044%=      5-min Rain = 0
KST3 210044Z 14012G17KT 31/18 A2972 RMK A01 T03120175  RH  044%=      5-min Rain = 0
KST3 210045Z 14011G17KT 31/17 A2972 RMK A01 T03120173  RH  043%=      5-min Rain = 0
KST3 210046Z 14011KT 31/17 A2972 RMK A01 T03120173  RH  043%=      5-min Rain = 0
KST3 210047Z 13012KT 31/17 A2972 RMK A01 T03120174  RH  044%=      5-min Rain = 0
KST3 210048Z 13011KT 31/17 A2972 RMK A01 T03120174  RH  044%=      5-min Rain = 0
KST3 210049Z 13009KT 31/18 A2972 RMK A01 T03110175  RH  044%=      5-min Rain = 0
KST3 210050Z 13011G16KT 31/18 A2972 RMK A01 T03110175  RH  044%=      5-min Rain = 0
KST3 210051Z 13011KT 31/18 A2972 RMK A01 T03110177  RH  045%=      5-min Rain = 0
KST3 210052Z 13010KT 31/18 A2972 RMK A01 T03110177  RH  045%=      5-min Rain = 0
KST3 210053Z 13012KT 31/18 A2972 RMK A01 T03100177  RH  045%=      5-min Rain = 0
KST3 210054Z 12012KT 31/18 A2972 RMK A01 T03100178  RH  045%=      5-min Rain = 0
KST3 210055Z 13010KT 31/18 A2972 RMK A01 T03090179  RH  046%=      5-min Rain = 0
KST3 210056Z 13010KT 31/18 A2972 RMK A01 T03080180  RH  046%=      5-min Rain = 0
KST3 210057Z 14010KT 31/18 A2972 RMK A01 T03080181  RH  047%=      5-min Rain = 0
KST3 210058Z 14013KT 31/18 A2972 RMK A01 T03070181  RH  047%=      5-min Rain = 0
KST3 210059Z 13010KT 31/18 A2972 RMK A01 T03070182  RH  047%=      5-min Rain = 0
KST3 210100Z 13011G16KT 31/18 A2972 RMK A01 T03060182  RH  048%=      5-min Rain = 0
KST3 210101Z 13013KT 31/18 A2972 RMK A01 T03050181  RH  047%=      5-min Rain = 0
KST3 210102Z 13013KT 31/18 A2972 RMK A01 T03050180  RH  047%=      5-min Rain = 0
KST3 210103Z 13012KT 31/18 A2972 RMK A01 T03050180  RH  047%=      5-min Rain = 0
KST3 210104Z 14011KT 31/18 A2972 RMK A01 T03050181  RH  048%=      5-min Rain = 0
KST3 210105Z 13011KT 31/18 A2972 RMK A01 T03050182  RH  048%=      5-min Rain = 0
KST3 210106Z 13012KT 30/18 A2972 RMK A01 T03040181  RH  048%=      5-min Rain = 0
KST3 210107Z 13011KT 31/18 A2972 RMK A01 T03050181  RH  048%=      5-min Rain = 0
KST3 210108Z 13011KT 30/18 A2972 RMK A01 T03040181  RH  048%=      5-min Rain = 0
KST3 210109Z 13009KT 30/18 A2972 RMK A01 T03030182  RH  048%=      5-min Rain = 0
KST3 210110Z 13010KT 30/18 A2972 RMK A01 T03030182  RH  048%=      5-min Rain = 0
KST3 210111Z 13012KT 30/18 A2972 RMK A01 T03020182  RH  049%=      5-min Rain = 0
KST3 210112Z 13011KT 30/18 A2972 RMK A01 T03020182  RH  049%=      5-min Rain = 0
KST3 210113Z 12011KT 30/18 A2972 RMK A01 T03010181  RH  048%=      5-min Rain = 0
KST3 210114Z 13011G16KT 30/18 A2972 RMK A01 T03020181  RH  049%=      5-min Rain = 0
KST3 210115Z 12011KT 30/18 A2972 RMK A01 T03020181  RH  048%=      5-min Rain = 0
KST3 210116Z 13010KT 30/18 A2972 RMK A01 T03010183  RH  049%=      5-min Rain = 0
KST3 210117Z 12011KT 30/18 A2972 RMK A01 T03000182  RH  049%=      5-min Rain = 0
KST3 210118Z 12010KT 30/18 A2972 RMK A01 T03000182  RH  049%=      5-min Rain = 0
KST3 210119Z 13009KT 30/18 A2972 RMK A01 T03000182  RH  049%=      5-min Rain = 0
KST3 210120Z 13010KT 30/18 A2972 RMK A01 T02990182  RH  049%=      5-min Rain = 0
KST3 210121Z 13010KT 30/18 A2972 RMK A01 T02990182  RH  050%=      5-min Rain = 0
KST3 210122Z 13011KT 30/18 A2972 RMK A01 T02990182  RH  050%=      5-min Rain = 0
KST3 210123Z 13011KT 30/18 A2972 RMK A01 T02980182  RH  050%=      5-min Rain = 0
KST3 210124Z 13009KT 30/18 A2972 RMK A01 T02980183  RH  050%=      5-min Rain = 0
KST3 210125Z 13010KT 30/18 A2972 RMK A01 T02970183  RH  050%=      5-min Rain = 0
KST3 210126Z 13009KT 30/18 A2972 RMK A01 T02970183  RH  051%=      5-min Rain = 0
KST3 210127Z 12009KT 30/18 A2972 RMK A01 T02960183  RH  051%=      5-min Rain = 0
KST3 210128Z 12009KT 30/18 A2972 RMK A01 T02960183  RH  051%=      5-min Rain = 0
KST3 210129Z 13008KT 30/18 A2971 RMK A01 T02950184  RH  051%=      5-min Rain = 0
KST3 210130Z 12009KT 30/18 A2971 RMK A01 T02950184  RH  051%=      5-min Rain = 0
KST3 210131Z 12010KT 29/18 A2971 RMK A01 T02940184  RH  052%=      5-min Rain = 0
KST3 210132Z 12009KT 29/18 A2971 RMK A01 T02940184  RH  052%=      5-min Rain = 0
KST3 210133Z 13010KT 29/19 A2971 RMK A01 T02930185  RH  052%=      5-min Rain = 0
KST3 210134Z 12010KT 29/18 A2971 RMK A01 T02930184  RH  052%=      5-min Rain = 0
KST3 210135Z 12009KT 29/19 A2971 RMK A01 T02930185  RH  052%=      5-min Rain = 0
KST3 210136Z 12009KT 29/19 A2971 RMK A01 T02930186  RH  053%=      5-min Rain = 0
KST3 210137Z 13009KT 29/19 A2971 RMK A01 T02920186  RH  053%=      5-min Rain = 0
KST3 210138Z 13008KT 29/19 A2971 RMK A01 T02900186  RH  053%=      5-min Rain = 0
KST3 210139Z 13009KT 29/19 A2971 RMK A01 T02900187  RH  054%=      5-min Rain = 0
KST3 210140Z 13009KT 29/19 A2971 RMK A01 T02890187  RH  054%=      5-min Rain = 0
KST3 210141Z 13009KT 29/19 A2971 RMK A01 T02890187  RH  054%=      5-min Rain = 0
KST3 210142Z 13009KT 29/19 A2971 RMK A01 T02880188  RH  054%=      5-min Rain = 0
KST3 210143Z 13008KT 29/19 A2971 RMK A01 T02870187  RH  055%=      5-min Rain = 0
KST3 210144Z 13010KT 29/19 A2971 RMK A01 T02870187  RH  055%=      5-min Rain = 0
KST3 210145Z 13009KT 29/19 A2971 RMK A01 T02870187  RH  055%=      5-min Rain = 0
KST3 210146Z 13010KT 29/19 A2971 RMK A01 T02870187  RH  055%=      5-min Rain = 0
KST3 210147Z 13009KT 29/19 A2971 RMK A01 T02870188  RH  055%=      5-min Rain = 0
KST3 210148Z 13010KT 29/19 A2971 RMK A01 T02870188  RH  055%=      5-min Rain = 0
KST3 210149Z 13008KT 29/19 A2971 RMK A01 T02860188  RH  055%=      5-min Rain = 0
KST3 210150Z 13010KT 29/19 A2971 RMK A01 T02850188  RH  056%=      5-min Rain = 0
KST3 210151Z 13010KT 29/19 A2971 RMK A01 T02850188  RH  056%=      5-min Rain = 0
KST3 210152Z 13010KT 29/19 A2971 RMK A01 T02850188  RH  056%=      5-min Rain = 0
KST3 210153Z 13008KT 29/19 A2971 RMK A01 T02850188  RH  056%=      5-min Rain = 0
KST3 210154Z 13009KT 28/19 A2971 RMK A01 T02840188  RH  056%=      5-min Rain = 0
KST3 210155Z 13010KT 28/19 A2971 RMK A01 T02840189  RH  056%=      5-min Rain = 0
KST3 210156Z 13009KT 28/19 A2971 RMK A01 T02830188  RH  056%=      5-min Rain = 0
KST3 210157Z 13009KT 28/19 A2971 RMK A01 T02830189  RH  057%=      5-min Rain = 0
KST3 210158Z 13010KT 28/19 A2971 RMK A01 T02830189  RH  057%=      5-min Rain = 0
KST3 210159Z 13009KT 28/19 A2971 RMK A01 T02830189  RH  057%=      5-min Rain = 0
KST3 210200Z 14007KT 28/19 A2971 RMK A01 T02820189  RH  057%=      5-min Rain = 0
KST3 210201Z 13009KT 28/19 A2971 RMK A01 T02820189  RH  057%=      5-min Rain = 0
KST3 210202Z 14009KT 28/19 A2971 RMK A01 T02810188  RH  057%=      5-min Rain = 0
KST3 210203Z 14008KT 28/19 A2971 RMK A01 T02810188  RH  057%=      5-min Rain = 0
KST3 210204Z 13009KT 28/19 A2971 RMK A01 T02810188  RH  057%=      5-min Rain = 0
KST3 210205Z 13008KT 28/19 A2971 RMK A01 T02810187  RH  057%=      5-min Rain = 0
KST3 210206Z 13009KT 28/19 A2971 RMK A01 T02810187  RH  057%=      5-min Rain = 0
KST3 210207Z 13008KT 28/19 A2971 RMK A01 T02810187  RH  057%=      5-min Rain = 0
KST3 210208Z 13010KT 28/19 A2971 RMK A01 T02810187  RH  057%=      5-min Rain = 0
KST3 210209Z 14008KT 28/19 A2971 RMK A01 T02810187  RH  057%=      5-min Rain = 0
KST3 210210Z 14008KT 28/19 A2971 RMK A01 T02790187  RH  057%=      5-min Rain = 0
KST3 210211Z 13009KT 28/19 A2971 RMK A01 T02780186  RH  057%=      5-min Rain = 0
KST3 210212Z 14008KT 28/19 A2971 RMK A01 T02770185  RH  057%=      5-min Rain = 0
KST3 210213Z 14008KT 28/18 A2971 RMK A01 T02770184  RH  057%=      5-min Rain = 0
KST3 210214Z 14008KT 28/18 A2971 RMK A01 T02780184  RH  057%=      5-min Rain = 0
KST3 210215Z 14008KT 28/18 A2971 RMK A01 T02780183  RH  056%=      5-min Rain = 0
KST3 210216Z 13008KT 28/18 A2971 RMK A01 T02780184  RH  057%=      5-min Rain = 0
KST3 210217Z 13008KT 28/18 A2971 RMK A01 T02780184  RH  057%=      5-min Rain = 0
KST3 210218Z 13008KT 28/18 A2971 RMK A01 T02770183  RH  057%=      5-min Rain = 0
KST3 210219Z 14007KT 28/18 A2971 RMK A01 T02770183  RH  057%=      5-min Rain = 0
KST3 210220Z 13008KT 28/18 A2971 RMK A01 T02760183  RH  057%=      5-min Rain = 0
KST3 210221Z 14008KT 28/18 A2971 RMK A01 T02750182  RH  057%=      5-min Rain = 0
KST3 210222Z 13008KT 28/18 A2971 RMK A01 T02750182  RH  057%=      5-min Rain = 0
KST3 210223Z 13008KT 27/18 A2971 RMK A01 T02740181  RH  057%=      5-min Rain = 0
KST3 210224Z 13007KT 27/18 A2971 RMK A01 T02740182  RH  057%=      5-min Rain = 0
KST3 210225Z 13006KT 27/18 A2971 RMK A01 T02730182  RH  058%=      5-min Rain = 0
KST3 210226Z 13007KT 27/18 A2971 RMK A01 T02710182  RH  058%=      5-min Rain = 0
KST3 210227Z 13006KT 27/18 A2971 RMK A01 T02690182  RH  059%=      5-min Rain = 0
KST3 210228Z 13007KT 27/18 A2971 RMK A01 T02680182  RH  059%=      5-min Rain = 0
KST3 210229Z 13007KT 27/18 A2971 RMK A01 T02670181  RH  059%=      5-min Rain = 0
KST3 210230Z 13007KT 27/18 A2971 RMK A01 T02670181  RH  059%=      5-min Rain = 0
KST3 210231Z 13008KT 27/18 A2971 RMK A01 T02660180  RH  059%=      5-min Rain = 0
KST3 210232Z 13007KT 27/18 A2971 RMK A01 T02660178  RH  059%=      5-min Rain = 0
KST3 210233Z 13008KT 27/18 A2971 RMK A01 T02660178  RH  058%=      5-min Rain = 0
KST3 210234Z 13009KT 27/18 A2971 RMK A01 T02670176  RH  058%=      5-min Rain = 0
KST3 210235Z 14008KT 27/17 A2971 RMK A01 T02680174  RH  057%=      5-min Rain = 0
KST3 210236Z 14007KT 27/18 A2971 RMK A01 T02690175  RH  056%=      5-min Rain = 0
KST3 210237Z 13007KT 27/18 A2971 RMK A01 T02690175  RH  056%=      5-min Rain = 0
KST3 210238Z 13007KT 27/17 A2971 RMK A01 T02690173  RH  056%=      5-min Rain = 0
KST3 210239Z 14007KT 27/17 A2971 RMK A01 T02690172  RH  056%=      5-min Rain = 0
KST3 210240Z 14007KT 27/17 A2971 RMK A01 T02690172  RH  055%=      5-min Rain = 0
KST3 210241Z 13006KT 27/17 A2971 RMK A01 T02680171  RH  055%=      5-min Rain = 0
KST3 210242Z 13006KT 27/17 A2971 RMK A01 T02670171  RH  055%=      5-min Rain = 0
KST3 210243Z 14006KT 27/17 A2971 RMK A01 T02670171  RH  056%=      5-min Rain = 0
KST3 210244Z 14006KT 27/17 A2971 RMK A01 T02660170  RH  056%=      5-min Rain = 0
KST3 210245Z 14006KT 27/17 A2971 RMK A01 T02650169  RH  056%=      5-min Rain = 0
KST3 210246Z 14006KT 26/17 A2971 RMK A01 T02640169  RH  056%=      5-min Rain = 0
KST3 210247Z 14006KT 26/17 A2971 RMK A01 T02640169  RH  056%=      5-min Rain = 0
KST3 210248Z 14006KT 26/17 A2971 RMK A01 T02630169  RH  056%=      5-min Rain = 0
KST3 210249Z 14006KT 26/17 A2971 RMK A01 T02630169  RH  057%=      5-min Rain = 0
KST3 210250Z 14006KT 26/17 A2971 RMK A01 T02610168  RH  057%=      5-min Rain = 0
KST3 210251Z 14006KT 26/17 A2971 RMK A01 T02610169  RH  057%=      5-min Rain = 0
KST3 210252Z 14006KT 26/17 A2971 RMK A01 T02600168  RH  057%=      5-min Rain = 0
KST3 210253Z 14006KT 26/17 A2971 RMK A01 T02600168  RH  057%=      5-min Rain = 0
KST3 210254Z 14005KT 26/17 A2971 RMK A01 T02600167  RH  057%=      5-min Rain = 0
KST3 210255Z 14005KT 26/17 A2971 RMK A01 T02600168  RH  057%=      5-min Rain = 0
KST3 210256Z 14005KT 26/17 A2971 RMK A01 T02590168  RH  057%=      5-min Rain = 0
KST3 210257Z 14005KT 26/17 A2971 RMK A01 T02590167  RH  057%=      5-min Rain = 0
KST3 210258Z 14005KT 26/17 A2971 RMK A01 T02590167  RH  057%=      5-min Rain = 0
KST3 210259Z 14006KT 26/17 A2971 RMK A01 T02580167  RH  057%=      5-min Rain = 0
KST3 210300Z 14005KT 26/17 A2971 RMK A01 T02580166  RH  057%=      5-min Rain = 0
KST3 210301Z 15006KT 26/17 A2971 RMK A01 T02570166  RH  057%=      5-min Rain = 0
KST3 210302Z 15005KT 26/16 A2971 RMK A01 T02570164  RH  057%=      5-min Rain = 0
KST3 210303Z 14005KT 26/16 A2971 RMK A01 T02580164  RH  056%=      5-min Rain = 0
KST3 210304Z 14006KT 26/17 A2971 RMK A01 T02580165  RH  056%=      5-min Rain = 0
KST3 210305Z 14006KT 26/16 A2971 RMK A01 T02580164  RH  056%=      5-min Rain = 0
KST3 210306Z 15006KT 26/16 A2971 RMK A01 T02580163  RH  056%=      5-min Rain = 0
KST3 210307Z 15006KT 26/16 A2971 RMK A01 T02580164  RH  056%=      5-min Rain = 0
KST3 210308Z 15006KT 26/16 A2972 RMK A01 T02580163  RH  056%=      5-min Rain = 0
KST3 210309Z 14007KT 26/16 A2972 RMK A01 T02570163  RH  056%=      5-min Rain = 0
KST3 210310Z 14006KT 26/16 A2972 RMK A01 T02570162  RH  056%=      5-min Rain = 0
KST3 210311Z 14006KT 26/16 A2972 RMK A01 T02570163  RH  056%=      5-min Rain = 0
KST3 210312Z 15006KT 26/16 A2972 RMK A01 T02560162  RH  056%=      5-min Rain = 0
KST3 210313Z 15006KT 26/16 A2972 RMK A01 T02560162  RH  056%=      5-min Rain = 0
KST3 210314Z 15006KT 26/16 A2972 RMK A01 T02560162  RH  056%=      5-min Rain = 0
KST3 210315Z 15006KT 26/16 A2972 RMK A01 T02550162  RH  056%=      5-min Rain = 0
KST3 210316Z 15006KT 26/16 A2972 RMK A01 T02550162  RH  056%=      5-min Rain = 0
KST3 210317Z 15007KT 25/16 A2972 RMK A01 T02540161  RH  056%=      5-min Rain = 0
KST3 210318Z 15006KT 25/16 A2972 RMK A01 T02540161  RH  056%=      5-min Rain = 0
KST3 210319Z 15006KT 25/16 A2972 RMK A01 T02530161  RH  057%=      5-min Rain = 0
KST3 210320Z 15006KT 25/16 A2972 RMK A01 T02520161  RH  057%=      5-min Rain = 0
KST3 210321Z 15007KT 25/16 A2972 RMK A01 T02520160  RH  057%=      5-min Rain = 0
KST3 210322Z 15007KT 25/16 A2972 RMK A01 T02520160  RH  057%=      5-min Rain = 0
KST3 210323Z 15007KT 25/16 A2972 RMK A01 T02520161  RH  057%=      5-min Rain = 0
KST3 210324Z 15007KT 25/16 A2972 RMK A01 T02520159  RH  056%=      5-min Rain = 0
KST3 210325Z 15007KT 25/16 A2972 RMK A01 T02530160  RH  056%=      5-min Rain = 0
KST3 210326Z 15007KT 25/16 A2972 RMK A01 T02530160  RH  056%=      5-min Rain = 0
KST3 210327Z 15007KT 25/16 A2972 RMK A01 T02530160  RH  056%=      5-min Rain = 0
KST3 210328Z 15006KT 25/16 A2972 RMK A01 T02530159  RH  056%=      5-min Rain = 0
KST3 210329Z 15007KT 25/16 A2972 RMK A01 T02530160  RH  056%=      5-min Rain = 0
KST3 210330Z 15006KT 25/16 A2972 RMK A01 T02530160  RH  056%=      5-min Rain = 0
KST3 210331Z 15006KT 25/16 A2972 RMK A01 T02530160  RH  056%=      5-min Rain = 0
KST3 210332Z 15007KT 25/16 A2972 RMK A01 T02530160  RH  057%=      5-min Rain = 0
KST3 210333Z 15006KT 25/16 A2972 RMK A01 T02520160  RH  057%=      5-min Rain = 0
KST3 210334Z 15007KT 25/16 A2972 RMK A01 T02510160  RH  057%=      5-min Rain = 0
KST3 210335Z 15007KT 25/16 A2972 RMK A01 T02510160  RH  057%=      5-min Rain = 0
KST3 210336Z 15007KT 25/16 A2972 RMK A01 T02500160  RH  057%=      5-min Rain = 0
KST3 210337Z 15007KT 25/16 A2972 RMK A01 T02490160  RH  058%=      5-min Rain = 0
KST3 210338Z 15007KT 25/16 A2972 RMK A01 T02490160  RH  058%=      5-min Rain = 0
KST3 210339Z 15007KT 25/16 A2972 RMK A01 T02490160  RH  058%=      5-min Rain = 0
KST3 210340Z 16007KT 25/16 A2972 RMK A01 T02480160  RH  058%=      5-min Rain = 0
KST3 210341Z 15006KT 25/16 A2972 RMK A01 T02480160  RH  058%=      5-min Rain = 0
KST3 210342Z 15006KT 25/16 A2972 RMK A01 T02470160  RH  058%=      5-min Rain = 0
KST3 210343Z 16006KT 25/16 A2972 RMK A01 T02470160  RH  059%=      5-min Rain = 0
KST3 210344Z 16007KT 25/16 A2972 RMK A01 T02460160  RH  059%=      5-min Rain = 0
KST3 210345Z 16008KT 25/16 A2972 RMK A01 T02460160  RH  059%=      5-min Rain = 0
KST3 210346Z 17007KT 25/16 A2972 RMK A01 T02460159  RH  058%=      5-min Rain = 0
KST3 210347Z 17007KT 25/16 A2972 RMK A01 T02470158  RH  058%=      5-min Rain = 0
KST3 210348Z 17006KT 25/16 A2972 RMK A01 T02480158  RH  057%=      5-min Rain = 0
KST3 210349Z 17007KT 25/16 A2972 RMK A01 T02490158  RH  057%=      5-min Rain = 0
KST3 210350Z 17007KT 25/16 A2972 RMK A01 T02490156  RH  056%=      5-min Rain = 0
KST3 210351Z 17007KT 25/16 A2972 RMK A01 T02500156  RH  056%=      5-min Rain = 0
KST3 210352Z 18008KT 25/16 A2972 RMK A01 T02510155  RH  055%=      5-min Rain = 0
KST3 210353Z 18008KT 25/16 A2972 RMK A01 T02520155  RH  055%=      5-min Rain = 0
KST3 210354Z 17008KT 25/15 A2972 RMK A01 T02540154  RH  054%=      5-min Rain = 0
KST3 210355Z 17008KT 26/15 A2972 RMK A01 T02550154  RH  053%=      5-min Rain = 0
KST3 210356Z 17009KT 26/15 A2972 RMK A01 T02550153  RH  053%=      5-min Rain = 0
KST3 210357Z 16009KT 25/15 A2972 RMK A01 T02540151  RH  053%=      5-min Rain = 0
KST3 210358Z 16008KT 26/15 A2972 RMK A01 T02550151  RH  053%=      5-min Rain = 0
KST3 210359Z 17008KT 25/15 A2972 RMK A01 T02540150  RH  052%=      5-min Rain = 0
KST3 210400Z 17008KT 25/15 A2972 RMK A01 T02540150  RH  052%=      5-min Rain = 0
KST3 210401Z 16009KT 25/15 A2972 RMK A01 T02540149  RH  052%=      5-min Rain = 0
KST3 210402Z 16009KT 25/15 A2972 RMK A01 T02540148  RH  052%=      5-min Rain = 0
KST3 210403Z 16009KT 26/15 A2972 RMK A01 T02550147  RH  051%=      5-min Rain = 0
KST3 210404Z 16010KT 26/15 A2972 RMK A01 T02550147  RH  051%=      5-min Rain = 0
KST3 210405Z 17008KT 26/15 A2972 RMK A01 T02550146  RH  051%=      5-min Rain = 0
KST3 210406Z 17008KT 25/15 A2972 RMK A01 T02540146  RH  051%=      5-min Rain = 0
KST3 210407Z 17009KT 25/14 A2972 RMK A01 T02540144  RH  050%=      5-min Rain = 0
KST3 210408Z 17007KT 26/14 A2972 RMK A01 T02560143  RH  050%=      5-min Rain = 0
KST3 210409Z 17007KT 26/14 A2973 RMK A01 T02560144  RH  050%=      5-min Rain = 0
KST3 210410Z 17007KT 26/14 A2973 RMK A01 T02560144  RH  050%=      5-min Rain = 0
KST3 210411Z 17008KT 26/14 A2973 RMK A01 T02550143  RH  050%=      5-min Rain = 0
KST3 210412Z 17007KT 26/14 A2973 RMK A01 T02550142  RH  049%=      5-min Rain = 0
KST3 210413Z 17007KT 26/14 A2973 RMK A01 T02550142  RH  050%=      5-min Rain = 0
KST3 210414Z 17007KT 25/14 A2973 RMK A01 T02540141  RH  050%=      5-min Rain = 0
KST3 210415Z 17007KT 25/14 A2973 RMK A01 T02530140  RH  050%=      5-min Rain = 0
KST3 210416Z 16009KT 25/14 A2972 RMK A01 T02530139  RH  049%=      5-min Rain = 0
KST3 210417Z 17008KT 25/14 A2972 RMK A01 T02530138  RH  049%=      5-min Rain = 0
KST3 210418Z 17008KT 25/14 A2972 RMK A01 T02530138  RH  049%=      5-min Rain = 0
KST3 210419Z 17007KT 25/14 A2972 RMK A01 T02530137  RH  049%=      5-min Rain = 0
KST3 210420Z 18007KT 25/14 A2972 RMK A01 T02530137  RH  048%=      5-min Rain = 0
KST3 210421Z 18006KT 25/14 A2972 RMK A01 T02530137  RH  049%=      5-min Rain = 0
KST3 210422Z 17006KT 25/14 A2972 RMK A01 T02520137  RH  049%=      5-min Rain = 0
KST3 210423Z 17006KT 25/14 A2972 RMK A01 T02520138  RH  049%=      5-min Rain = 0
KST3 210424Z 18006KT 25/14 A2973 RMK A01 T02510138  RH  049%=      5-min Rain = 0
KST3 210425Z 18006KT 25/14 A2973 RMK A01 T02510137  RH  049%=      5-min Rain = 0
KST3 210426Z 18007KT 25/14 A2973 RMK A01 T02500136  RH  049%=      5-min Rain = 0
KST3 210427Z 18008KT 25/14 A2973 RMK A01 T02500135  RH  049%=      5-min Rain = 0
KST3 210428Z 18009KT 25/13 A2972 RMK A01 T02500132  RH  048%=      5-min Rain = 0
KST3 210429Z 18009KT 25/13 A2972 RMK A01 T02520128  RH  046%=      5-min Rain = 0
KST3 210430Z 18009KT 25/13 A2972 RMK A01 T02530127  RH  045%=      5-min Rain = 0
KST3 210431Z 18010KT 25/12 A2972 RMK A01 T02540124  RH  044%=      5-min Rain = 0
KST3 210432Z 18010KT 26/12 A2973 RMK A01 T02560123  RH  044%=      5-min Rain = 0
KST3 210433Z 18010KT 26/12 A2973 RMK A01 T02570123  RH  043%=      5-min Rain = 0
KST3 210434Z 19009KT 26/12 A2973 RMK A01 T02570123  RH  043%=      5-min Rain = 0
KST3 210435Z 18009KT 26/12 A2973 RMK A01 T02550121  RH  043%=      5-min Rain = 0
KST3 210436Z 19008KT 25/12 A2972 RMK A01 T02540121  RH  043%=      5-min Rain = 0
KST3 210437Z 19007KT 25/12 A2972 RMK A01 T02540120  RH  043%=      5-min Rain = 0
KST3 210438Z 19007KT 25/12 A2972 RMK A01 T02530121  RH  044%=      5-min Rain = 0
KST3 210439Z 19008KT 25/12 A2972 RMK A01 T02520120  RH  043%=      5-min Rain = 0
KST3 210440Z 18008KT 25/12 A2972 RMK A01 T02520119  RH  043%=      5-min Rain = 0
KST3 210441Z 19008KT 25/12 A2972 RMK A01 T02510119  RH  044%=      5-min Rain = 0
KST3 210442Z 19008KT 25/12 A2972 RMK A01 T02490120  RH  044%=      5-min Rain = 0
KST3 210443Z 19009KT 25/12 A2972 RMK A01 T02480120  RH  045%=      5-min Rain = 0
KST3 210444Z 18010KT 25/12 A2972 RMK A01 T02460120  RH  045%=      5-min Rain = 0
KST3 210445Z 19010KT 25/12 A2972 RMK A01 T02470118  RH  044%=      5-min Rain = 0
KST3 210446Z 20009KT 25/12 A2972 RMK A01 T02480120  RH  045%=      5-min Rain = 0
KST3 210447Z 20010KT 24/12 A2972 RMK A01 T02440123  RH  047%=      5-min Rain = 0
KST3 210448Z 20008KT 24/12 A2972 RMK A01 T02390123  RH  048%=      5-min Rain = 0
KST3 210449Z 20009KT 24/12 A2972 RMK A01 T02350124  RH  049%=      5-min Rain = 0
KST3 210450Z 20008KT 23/12 A2972 RMK A01 T02340124  RH  050%=      5-min Rain = 0
KST3 210451Z 19009KT 23/12 A2972 RMK A01 T02330123  RH  050%=      5-min Rain = 0
KST3 210452Z 18008KT 23/12 A2972 RMK A01 T02340122  RH  050%=      5-min Rain = 0
KST3 210453Z 18009KT 23/12 A2972 RMK A01 T02340122  RH  049%=      5-min Rain = 0
KST3 210454Z 18008KT 24/12 A2972 RMK A01 T02360122  RH  049%=      5-min Rain = 0
KST3 210455Z 18008KT 24/12 A2972 RMK A01 T02370122  RH  049%=      5-min Rain = 0
KST3 210456Z 18009KT 24/12 A2972 RMK A01 T02370122  RH  049%=      5-min Rain = 0
KST3 210457Z 18008KT 24/12 A2972 RMK A01 T02360122  RH  049%=      5-min Rain = 0
KST3 210458Z 19008KT 24/12 A2972 RMK A01 T02360123  RH  049%=      5-min Rain = 0
KST3 210459Z 19008KT 24/12 A2972 RMK A01 T02350122  RH  049%=      5-min Rain = 0

Page generated in 0.0869 seconds.